<?xml version='1.0' encoding='UTF-8'?><gpx version="1.1" creator="JPX - https://github.com/jenetics/jpx" xmlns="http://www.topografix.com/GPX/1/1"><trk><trkseg><trkpt lat="44.856616776807705" lon="9.062952998114094"><ele>401.0</ele><time>2026-04-19T13:07:29.999Z</time></trkpt><trkpt lat="44.856606269277286" lon="9.063093004435313"><ele>401.0</ele><time>2026-04-19T13:07:31.999Z</time></trkpt><trkpt lat="44.856582357633364" lon="9.063259720172159"><ele>401.0</ele><time>2026-04-19T13:07:33.999Z</time></trkpt><trkpt lat="44.856571486241364" lon="9.063400275590855"><ele>401.0</ele><time>2026-04-19T13:07:35.999Z</time></trkpt><trkpt lat="44.85656599414655" lon="9.063520864843042"><ele>401.0</ele><time>2026-04-19T13:07:37.999Z</time></trkpt><trkpt lat="44.856544827521546" lon="9.06364050965777"><ele>399.4</ele><time>2026-04-19T13:07:39.999Z</time></trkpt><trkpt lat="44.85650827482918" lon="9.063769899123107"><ele>397.8</ele><time>2026-04-19T13:07:41.999Z</time></trkpt><trkpt lat="44.85646045291839" lon="9.063910380265567"><ele>396.2</ele><time>2026-04-19T13:07:43.999Z</time></trkpt><trkpt lat="44.856415583299565" lon="9.064067478476556"><ele>394.59999999999997</ele><time>2026-04-19T13:07:45.999Z</time></trkpt><trkpt lat="44.85639772100088" lon="9.06415602203393"><ele>393.0</ele><time>2026-04-19T13:07:46.999Z</time></trkpt><trkpt lat="44.856381278377484" lon="9.064243311955579"><ele>391.0</ele><time>2026-04-19T13:07:47.999Z</time></trkpt><trkpt lat="44.856379637931376" lon="9.064333384248608"><ele>389.0</ele><time>2026-04-19T13:07:48.999Z</time></trkpt><trkpt lat="44.85636561238178" lon="9.064499084276378"><ele>387.0</ele><time>2026-04-19T13:07:50.999Z</time></trkpt><trkpt lat="44.85631609795222" lon="9.064602201368244"><ele>385.0</ele><time>2026-04-19T13:07:52.999Z</time></trkpt><trkpt lat="44.856242613824044" lon="9.064685247995998"><ele>383.0</ele><time>2026-04-19T13:07:54.999Z</time></trkpt><trkpt lat="44.85615577963624" lon="9.064757743944586"><ele>383.0</ele><time>2026-04-19T13:07:56.999Z</time></trkpt><trkpt lat="44.856084483688605" lon="9.064822525926363"><ele>383.0</ele><time>2026-04-19T13:07:58.999Z</time></trkpt><trkpt lat="44.856027668954034" lon="9.064886474160268"><ele>383.0</ele><time>2026-04-19T13:08:00.999Z</time></trkpt><trkpt lat="44.855991794678076" lon="9.065064058321434"><ele>383.0</ele><time>2026-04-19T13:08:02.999Z</time></trkpt><trkpt lat="44.85597733865851" lon="9.065170892622223"><ele>383.0</ele><time>2026-04-19T13:08:03.999Z</time></trkpt><trkpt lat="44.855946149031034" lon="9.065266671595444"><ele>383.0</ele><time>2026-04-19T13:08:07.999Z</time></trkpt><trkpt lat="44.855913817219765" lon="9.065398461180271"><ele>380.5</ele><time>2026-04-19T13:08:09.999Z</time></trkpt><trkpt lat="44.85589090676449" lon="9.065511040894869"><ele>378.0</ele><time>2026-04-19T13:08:10.999Z</time></trkpt><trkpt lat="44.855865164803504" lon="9.06564330666519"><ele>375.5</ele><time>2026-04-19T13:08:11.999Z</time></trkpt><trkpt lat="44.8558488320636" lon="9.065730244620987"><ele>373.0</ele><time>2026-04-19T13:08:12.999Z</time></trkpt><trkpt lat="44.85582114440126" lon="9.065810819019342"><ele>370.5</ele><time>2026-04-19T13:08:13.999Z</time></trkpt><trkpt lat="44.855790759125355" lon="9.065894146688516"><ele>368.0</ele><time>2026-04-19T13:08:14.999Z</time></trkpt><trkpt lat="44.85575927113705" lon="9.066019726777062"><ele>366.33333333333337</ele><time>2026-04-19T13:08:16.999Z</time></trkpt><trkpt lat="44.85573544790651" lon="9.066173234950995"><ele>364.6666666666667</ele><time>2026-04-19T13:08:18.999Z</time></trkpt><trkpt lat="44.85573307344294" lon="9.06628602251714"><ele>363.0</ele><time>2026-04-19T13:08:19.999Z</time></trkpt><trkpt lat="44.85575003520588" lon="9.066393131458229"><ele>361.3333333333333</ele><time>2026-04-19T13:08:20.999Z</time></trkpt><trkpt lat="44.855777868822656" lon="9.066501702975618"><ele>359.66666666666663</ele><time>2026-04-19T13:08:21.999Z</time></trkpt><trkpt lat="44.85582286310316" lon="9.066588581300815"><ele>358.0</ele><time>2026-04-19T13:08:22.999Z</time></trkpt><trkpt lat="44.855862879024514" lon="9.066683306795227"><ele>359.59999999999997</ele><time>2026-04-19T13:08:23.999Z</time></trkpt><trkpt lat="44.85589628730171" lon="9.066794258817035"><ele>361.2</ele><time>2026-04-19T13:08:24.998Z</time></trkpt><trkpt lat="44.85591731486892" lon="9.066890754224524"><ele>362.8</ele><time>2026-04-19T13:08:25.998Z</time></trkpt><trkpt lat="44.8559610090823" lon="9.067041916591043"><ele>364.4</ele><time>2026-04-19T13:08:27.998Z</time></trkpt><trkpt lat="44.85600761540642" lon="9.067140562720091"><ele>366.0</ele><time>2026-04-19T13:08:28.998Z</time></trkpt><trkpt lat="44.85608188176425" lon="9.067236642346892"><ele>366.0</ele><time>2026-04-19T13:08:29.998Z</time></trkpt><trkpt lat="44.85617088023185" lon="9.067384121111974"><ele>366.0</ele><time>2026-04-19T13:08:31.998Z</time></trkpt><trkpt lat="44.856213422936804" lon="9.067473525242214"><ele>366.0</ele><time>2026-04-19T13:08:32.998Z</time></trkpt><trkpt lat="44.85624981295953" lon="9.067548318167116"><ele>366.0</ele><time>2026-04-19T13:08:33.998Z</time></trkpt><trkpt lat="44.856305930940735" lon="9.067634488586666"><ele>366.0</ele><time>2026-04-19T13:08:34.998Z</time></trkpt><trkpt lat="44.856386822838104" lon="9.067749496674494"><ele>362.8</ele><time>2026-04-19T13:08:35.998Z</time></trkpt><trkpt lat="44.85647374547398" lon="9.067858094749347"><ele>359.6</ele><time>2026-04-19T13:08:36.998Z</time></trkpt><trkpt lat="44.856539166818656" lon="9.06795582255975"><ele>356.4</ele><time>2026-04-19T13:08:37.998Z</time></trkpt><trkpt lat="44.85658956770282" lon="9.068056971974881"><ele>353.2</ele><time>2026-04-19T13:08:38.998Z</time></trkpt><trkpt lat="44.85661785822064" lon="9.06816290709227"><ele>350.0</ele><time>2026-04-19T13:08:39.998Z</time></trkpt><trkpt lat="44.856635569156175" lon="9.06829410950724"><ele>348.0</ele><time>2026-04-19T13:08:40.998Z</time></trkpt><trkpt lat="44.856640246877284" lon="9.068443048353776"><ele>346.0</ele><time>2026-04-19T13:08:41.998Z</time></trkpt><trkpt lat="44.856643410539135" lon="9.068607800737206"><ele>344.0</ele><time>2026-04-19T13:08:42.998Z</time></trkpt><trkpt lat="44.856643593318985" lon="9.068755457064483"><ele>342.0</ele><time>2026-04-19T13:08:43.998Z</time></trkpt><trkpt lat="44.856655164556976" lon="9.068889362034524"><ele>340.0</ele><time>2026-04-19T13:08:44.998Z</time></trkpt><trkpt lat="44.85668065844201" lon="9.0689933531093"><ele>340.0</ele><time>2026-04-19T13:08:45.998Z</time></trkpt><trkpt lat="44.856716094413834" lon="9.069091423070187"><ele>340.0</ele><time>2026-04-19T13:08:46.998Z</time></trkpt><trkpt lat="44.85676060960867" lon="9.069182736478128"><ele>340.0</ele><time>2026-04-19T13:08:47.998Z</time></trkpt><trkpt lat="44.85680790852598" lon="9.06927667705424"><ele>340.0</ele><time>2026-04-19T13:08:48.998Z</time></trkpt><trkpt lat="44.856825827854635" lon="9.069384157280354"><ele>340.0</ele><time>2026-04-19T13:08:49.998Z</time></trkpt><trkpt lat="44.856849923868566" lon="9.069527048079085"><ele>340.0</ele><time>2026-04-19T13:08:50.998Z</time></trkpt><trkpt lat="44.856855893523" lon="9.069630976162456"><ele>341.0</ele><time>2026-04-19T13:08:51.998Z</time></trkpt><trkpt lat="44.856864736827475" lon="9.069730192846894"><ele>342.0</ele><time>2026-04-19T13:08:52.998Z</time></trkpt><trkpt lat="44.856888048878204" lon="9.06981768134218"><ele>343.0</ele><time>2026-04-19T13:08:53.998Z</time></trkpt><trkpt lat="44.85692628914521" lon="9.069919502663593"><ele>344.0</ele><time>2026-04-19T13:08:54.998Z</time></trkpt><trkpt lat="44.85698189800212" lon="9.070060873928588"><ele>345.0</ele><time>2026-04-19T13:08:56.998Z</time></trkpt><trkpt lat="44.85709642160778" lon="9.070144709232046"><ele>341.4</ele><time>2026-04-19T13:08:58.998Z</time></trkpt><trkpt lat="44.85719120825301" lon="9.070178947086536"><ele>337.8</ele><time>2026-04-19T13:08:59.998Z</time></trkpt><trkpt lat="44.85731704661683" lon="9.070203418917927"><ele>334.20000000000005</ele><time>2026-04-19T13:09:00.998Z</time></trkpt><trkpt lat="44.85743311578109" lon="9.07022213032604"><ele>330.6</ele><time>2026-04-19T13:09:01.998Z</time></trkpt><trkpt lat="44.857515504935044" lon="9.070245401759099"><ele>327.0</ele><time>2026-04-19T13:09:02.998Z</time></trkpt><trkpt lat="44.85759036379371" lon="9.070302894118136"><ele>326.40000000000003</ele><time>2026-04-19T13:09:03.998Z</time></trkpt><trkpt lat="44.857684775932825" lon="9.070392024662613"><ele>325.8</ele><time>2026-04-19T13:09:04.998Z</time></trkpt><trkpt lat="44.85776984530805" lon="9.070462040225907"><ele>325.2</ele><time>2026-04-19T13:09:05.998Z</time></trkpt><trkpt lat="44.857846510266285" lon="9.0704830957572"><ele>324.6</ele><time>2026-04-19T13:09:06.998Z</time></trkpt><trkpt lat="44.85795007872231" lon="9.070493822052084"><ele>324.0</ele><time>2026-04-19T13:09:08.998Z</time></trkpt><trkpt lat="44.85808177424663" lon="9.070425996282532"><ele>324.0</ele><time>2026-04-19T13:09:10.998Z</time></trkpt><trkpt lat="44.85816418693226" lon="9.070357466422895"><ele>324.0</ele><time>2026-04-19T13:09:11.998Z</time></trkpt><trkpt lat="44.85826732914592" lon="9.070261837403073"><ele>324.0</ele><time>2026-04-19T13:09:12.998Z</time></trkpt><trkpt lat="44.858352442653434" lon="9.070165765673496"><ele>324.0</ele><time>2026-04-19T13:09:13.998Z</time></trkpt><trkpt lat="44.85842599649965" lon="9.070079783094226"><ele>324.0</ele><time>2026-04-19T13:09:14.998Z</time></trkpt><trkpt lat="44.85849860077934" lon="9.070004651773644"><ele>323.2</ele><time>2026-04-19T13:09:15.998Z</time></trkpt><trkpt lat="44.85858827347003" lon="9.069925390694815"><ele>322.4</ele><time>2026-04-19T13:09:16.999Z</time></trkpt><trkpt lat="44.858678851208275" lon="9.069832394441672"><ele>321.6</ele><time>2026-04-19T13:09:17.999Z</time></trkpt><trkpt lat="44.858743477830195" lon="9.069746701101634"><ele>320.8</ele><time>2026-04-19T13:09:18.999Z</time></trkpt><trkpt lat="44.85878268675217" lon="9.069644221513016"><ele>320.0</ele><time>2026-04-19T13:09:20.999Z</time></trkpt><trkpt lat="44.858859519719935" lon="9.069494796932686"><ele>320.0</ele><time>2026-04-19T13:09:22.999Z</time></trkpt><trkpt lat="44.858899336083354" lon="9.069405510646556"><ele>320.0</ele><time>2026-04-19T13:09:23.999Z</time></trkpt><trkpt lat="44.85892725651617" lon="9.069306782810951"><ele>320.0</ele><time>2026-04-19T13:09:24.999Z</time></trkpt><trkpt lat="44.85896122428654" lon="9.069164674343757"><ele>320.0</ele><time>2026-04-19T13:09:25.999Z</time></trkpt><trkpt lat="44.858988183820095" lon="9.0690762959459"><ele>320.0</ele><time>2026-04-19T13:09:26.999Z</time></trkpt><trkpt lat="44.859054934584556" lon="9.068966857874901"><ele>320.0</ele><time>2026-04-19T13:09:28.999Z</time></trkpt><trkpt lat="44.859119477581125" lon="9.068977009311741"><ele>321.0</ele><time>2026-04-19T13:09:29.999Z</time></trkpt><trkpt lat="44.85918299796031" lon="9.06901944676516"><ele>322.0</ele><time>2026-04-19T13:09:30.999Z</time></trkpt><trkpt lat="44.85923296072897" lon="9.06908887396447"><ele>323.0</ele><time>2026-04-19T13:09:31.999Z</time></trkpt><trkpt lat="44.859333201364564" lon="9.069114008998412"><ele>324.0</ele><time>2026-04-19T13:09:33.999Z</time></trkpt><trkpt lat="44.85945305107368" lon="9.069093688237087"><ele>325.0</ele><time>2026-04-19T13:09:35.999Z</time></trkpt><trkpt lat="44.859521005569476" lon="9.069098027307067"><ele>326.0</ele><time>2026-04-19T13:09:36.999Z</time></trkpt><trkpt lat="44.85959330500693" lon="9.069107415673926"><ele>326.0</ele><time>2026-04-19T13:09:37.999Z</time></trkpt><trkpt lat="44.859676383363706" lon="9.069110448794548"><ele>326.0</ele><time>2026-04-19T13:09:38.999Z</time></trkpt><trkpt lat="44.85975657100928" lon="9.069103396769247"><ele>326.0</ele><time>2026-04-19T13:09:39.999Z</time></trkpt><trkpt lat="44.85987131020467" lon="9.069109278475342"><ele>326.0</ele><time>2026-04-19T13:09:40.999Z</time></trkpt><trkpt lat="44.86000334962671" lon="9.069130389779593"><ele>326.0</ele><time>2026-04-19T13:09:41.999Z</time></trkpt><trkpt lat="44.860102625654406" lon="9.069141756967545"><ele>319.5</ele><time>2026-04-19T13:09:42.999Z</time></trkpt><trkpt lat="44.86017350123158" lon="9.069151177751337"><ele>313.0</ele><time>2026-04-19T13:09:43.999Z</time></trkpt><trkpt lat="44.860253192393316" lon="9.069156593196652"><ele>306.5</ele><time>2026-04-19T13:09:44.999Z</time></trkpt><trkpt lat="44.86038317509032" lon="9.069129631406295"><ele>300.0</ele><time>2026-04-19T13:09:46.999Z</time></trkpt><trkpt lat="44.860456941099926" lon="9.069102425650552"><ele>293.5</ele><time>2026-04-19T13:09:47.999Z</time></trkpt><trkpt lat="44.86051158639005" lon="9.069054431729674"><ele>287.0</ele><time>2026-04-19T13:09:48.999Z</time></trkpt><trkpt lat="44.86057594890832" lon="9.06897357133954"><ele>287.0</ele><time>2026-04-19T13:09:50.999Z</time></trkpt><trkpt lat="44.860644784839785" lon="9.068902993019881"><ele>287.0</ele><time>2026-04-19T13:09:52.999Z</time></trkpt><trkpt lat="44.86071795425833" lon="9.068799319669766"><ele>287.0</ele><time>2026-04-19T13:09:54.999Z</time></trkpt><trkpt lat="44.860769092238726" lon="9.068719792420938"><ele>287.0</ele><time>2026-04-19T13:09:55.999Z</time></trkpt><trkpt lat="44.86078410027249" lon="9.068625942471995"><ele>287.0</ele><time>2026-04-19T13:09:56.999Z</time></trkpt><trkpt lat="44.86078676959561" lon="9.068506857679624"><ele>287.0</ele><time>2026-04-19T13:09:57.999Z</time></trkpt><trkpt lat="44.860785541478585" lon="9.068411704754064"><ele>287.0</ele><time>2026-04-19T13:09:58.999Z</time></trkpt><trkpt lat="44.860778775934826" lon="9.068308503544475"><ele>287.0</ele><time>2026-04-19T13:09:59.999Z</time></trkpt><trkpt lat="44.86073551803153" lon="9.068150039349494"><ele>287.0</ele><time>2026-04-19T13:10:01.999Z</time></trkpt><trkpt lat="44.860768366168536" lon="9.067990815295877"><ele>287.0</ele><time>2026-04-19T13:10:03.999Z</time></trkpt><trkpt lat="44.86083978071076" lon="9.067911173794132"><ele>287.0</ele><time>2026-04-19T13:10:04.999Z</time></trkpt><trkpt lat="44.86090003301912" lon="9.067842275296702"><ele>288.1666666666667</ele><time>2026-04-19T13:10:05.999Z</time></trkpt><trkpt lat="44.86093800199061" lon="9.067759221901332"><ele>289.33333333333337</ele><time>2026-04-19T13:10:06.999Z</time></trkpt><trkpt lat="44.86097474195362" lon="9.067654185323526"><ele>290.5</ele><time>2026-04-19T13:10:07.999Z</time></trkpt><trkpt lat="44.86100707515588" lon="9.067560633559225"><ele>291.6666666666667</ele><time>2026-04-19T13:10:08.999Z</time></trkpt><trkpt lat="44.86103064098376" lon="9.067454420572203"><ele>292.8333333333333</ele><time>2026-04-19T13:10:09.999Z</time></trkpt><trkpt lat="44.861045975789864" lon="9.06733332607404"><ele>294.0</ele><time>2026-04-19T13:10:10.999Z</time></trkpt><trkpt lat="44.86106760514714" lon="9.06720952602322"><ele>287.4</ele><time>2026-04-19T13:10:11.999Z</time></trkpt><trkpt lat="44.86108859235468" lon="9.067112671719059"><ele>280.79999999999995</ele><time>2026-04-19T13:10:12.999Z</time></trkpt><trkpt lat="44.86111259588416" lon="9.067024162523174"><ele>274.20000000000005</ele><time>2026-04-19T13:10:13.999Z</time></trkpt><trkpt lat="44.861140423292596" lon="9.066928894944553"><ele>267.6</ele><time>2026-04-19T13:10:14.999Z</time></trkpt><trkpt lat="44.86122273017984" lon="9.066805857726523"><ele>261.0</ele><time>2026-04-19T13:10:16.999Z</time></trkpt><trkpt lat="44.86135548111586" lon="9.066761899086002"><ele>261.0</ele><time>2026-04-19T13:10:18.999Z</time></trkpt><trkpt lat="44.86143079591287" lon="9.066768400673917"><ele>261.0</ele><time>2026-04-19T13:10:19.999Z</time></trkpt><trkpt lat="44.86150319282981" lon="9.06676064331037"><ele>261.0</ele><time>2026-04-19T13:10:20.999Z</time></trkpt><trkpt lat="44.86156615365563" lon="9.066718735720864"><ele>261.0</ele><time>2026-04-19T13:10:21.999Z</time></trkpt><trkpt lat="44.861610407453625" lon="9.066645844629234"><ele>261.0</ele><time>2026-04-19T13:10:22.999Z</time></trkpt><trkpt lat="44.86166946266808" lon="9.066553140904368"><ele>261.0</ele><time>2026-04-19T13:10:23.999Z</time></trkpt><trkpt lat="44.86174384579609" lon="9.06643493453643"><ele>259.3333333333333</ele><time>2026-04-19T13:10:24.999Z</time></trkpt><trkpt lat="44.861805145268555" lon="9.066366690777084"><ele>257.6666666666667</ele><time>2026-04-19T13:10:25.999Z</time></trkpt><trkpt lat="44.86187163722075" lon="9.066332799697932"><ele>256.0</ele><time>2026-04-19T13:10:26.999Z</time></trkpt><trkpt lat="44.86194509913695" lon="9.066302643086901"><ele>254.33333333333334</ele><time>2026-04-19T13:10:27.999Z</time></trkpt><trkpt lat="44.86201667646815" lon="9.066277781672207"><ele>252.66666666666669</ele><time>2026-04-19T13:10:28.999Z</time></trkpt><trkpt lat="44.86211033729485" lon="9.066224149620776"><ele>251.0</ele><time>2026-04-19T13:10:30.999Z</time></trkpt><trkpt lat="44.862201488173106" lon="9.066179487547172"><ele>251.0</ele><time>2026-04-19T13:10:32.999Z</time></trkpt><trkpt lat="44.86229371193717" lon="9.066042265250333"><ele>251.0</ele><time>2026-04-19T13:10:34.999Z</time></trkpt><trkpt lat="44.86236735884377" lon="9.065950381013051"><ele>251.0</ele><time>2026-04-19T13:10:35.999Z</time></trkpt><trkpt lat="44.86243648156964" lon="9.06583157855886"><ele>251.0</ele><time>2026-04-19T13:10:36.999Z</time></trkpt><trkpt lat="44.86251695928446" lon="9.065702589895189"><ele>249.8</ele><time>2026-04-19T13:10:37.999Z</time></trkpt><trkpt lat="44.86258457387964" lon="9.065563886088732"><ele>248.60000000000002</ele><time>2026-04-19T13:10:38.999Z</time></trkpt><trkpt lat="44.862654905219806" lon="9.065453551535796"><ele>247.4</ele><time>2026-04-19T13:10:39.999Z</time></trkpt><trkpt lat="44.86271848005966" lon="9.065364852788223"><ele>246.2</ele><time>2026-04-19T13:10:40.999Z</time></trkpt><trkpt lat="44.86276631088481" lon="9.065290815208414"><ele>245.0</ele><time>2026-04-19T13:10:41.999Z</time></trkpt><trkpt lat="44.862811821291174" lon="9.06522442300559"><ele>245.0</ele><time>2026-04-19T13:10:42.998Z</time></trkpt><trkpt lat="44.86289106503572" lon="9.065231176269934"><ele>245.0</ele><time>2026-04-19T13:10:43.998Z</time></trkpt><trkpt lat="44.862968907941486" lon="9.065303614930952"><ele>245.0</ele><time>2026-04-19T13:10:44.998Z</time></trkpt><trkpt lat="44.86304225726728" lon="9.065413071970353"><ele>245.0</ele><time>2026-04-19T13:10:45.998Z</time></trkpt><trkpt lat="44.8631409950491" lon="9.065534809930432"><ele>245.0</ele><time>2026-04-19T13:10:46.998Z</time></trkpt><trkpt lat="44.86325962881917" lon="9.065661416476761"><ele>243.66666666666669</ele><time>2026-04-19T13:10:47.998Z</time></trkpt><trkpt lat="44.86337707575886" lon="9.065805412559241"><ele>242.33333333333331</ele><time>2026-04-19T13:10:48.998Z</time></trkpt><trkpt lat="44.86349463044848" lon="9.065945922813688"><ele>241.0</ele><time>2026-04-19T13:10:49.998Z</time></trkpt><trkpt lat="44.8636166594016" lon="9.06610447079129"><ele>240.33333333333331</ele><time>2026-04-19T13:10:50.998Z</time></trkpt><trkpt lat="44.863726382947554" lon="9.066264012394091"><ele>239.66666666666669</ele><time>2026-04-19T13:10:51.998Z</time></trkpt><trkpt lat="44.86385068307098" lon="9.066420445308141"><ele>239.0</ele><time>2026-04-19T13:10:52.998Z</time></trkpt><trkpt lat="44.863974898855474" lon="9.066576772044094"><ele>238.66666666666669</ele><time>2026-04-19T13:10:53.998Z</time></trkpt><trkpt lat="44.86410157970336" lon="9.06674169379164"><ele>238.33333333333331</ele><time>2026-04-19T13:10:54.998Z</time></trkpt><trkpt lat="44.864235978247805" lon="9.066886567332954"><ele>238.0</ele><time>2026-04-19T13:10:55.998Z</time></trkpt><trkpt lat="44.86435562339723" lon="9.067050389899729"><ele>237.5</ele><time>2026-04-19T13:10:56.998Z</time></trkpt><trkpt lat="44.86445728217778" lon="9.0671894923554"><ele>237.0</ele><time>2026-04-19T13:10:57.998Z</time></trkpt><trkpt lat="44.86455051766647" lon="9.067320431327039"><ele>236.5</ele><time>2026-04-19T13:10:58.998Z</time></trkpt><trkpt lat="44.864628278256326" lon="9.067424341485053"><ele>236.0</ele><time>2026-04-19T13:10:59.998Z</time></trkpt><trkpt lat="44.864708185892816" lon="9.067506186164868"><ele>235.8</ele><time>2026-04-19T13:11:00.998Z</time></trkpt><trkpt lat="44.86479839149099" lon="9.067543774697569"><ele>235.60000000000002</ele><time>2026-04-19T13:11:01.998Z</time></trkpt><trkpt lat="44.864896188064606" lon="9.067550023735402"><ele>235.4</ele><time>2026-04-19T13:11:02.998Z</time></trkpt><trkpt lat="44.8650031640617" lon="9.067515045110785"><ele>235.2</ele><time>2026-04-19T13:11:03.998Z</time></trkpt><trkpt lat="44.86511239196741" lon="9.067448964112396"><ele>235.0</ele><time>2026-04-19T13:11:04.998Z</time></trkpt><trkpt lat="44.86521022336583" lon="9.067345046889926"><ele>234.66666666666666</ele><time>2026-04-19T13:11:05.998Z</time></trkpt><trkpt lat="44.86529804748011" lon="9.067209518821311"><ele>234.33333333333331</ele><time>2026-04-19T13:11:06.998Z</time></trkpt><trkpt lat="44.865378062822934" lon="9.067025150363245"><ele>234.0</ele><time>2026-04-19T13:11:07.998Z</time></trkpt><trkpt lat="44.865481946653745" lon="9.06683730257122"><ele>234.0</ele><time>2026-04-19T13:11:08.998Z</time></trkpt><trkpt lat="44.865604874578615" lon="9.066649885574428"><ele>234.0</ele><time>2026-04-19T13:11:09.998Z</time></trkpt><trkpt lat="44.86571877193315" lon="9.066476003367912"><ele>234.0</ele><time>2026-04-19T13:11:10.998Z</time></trkpt><trkpt lat="44.86580610303515" lon="9.066331725610203"><ele>234.25</ele><time>2026-04-19T13:11:11.998Z</time></trkpt><trkpt lat="44.86591384269364" lon="9.066261429292942"><ele>234.5</ele><time>2026-04-19T13:11:12.998Z</time></trkpt><trkpt lat="44.865990779098226" lon="9.066093451655098"><ele>234.75</ele><time>2026-04-19T13:11:13.998Z</time></trkpt><trkpt lat="44.86605337571133" lon="9.06593376935265"><ele>235.0</ele><time>2026-04-19T13:11:14.998Z</time></trkpt><trkpt lat="44.86615222454922" lon="9.065813301690259"><ele>235.75</ele><time>2026-04-19T13:11:15.998Z</time></trkpt><trkpt lat="44.86623897360973" lon="9.06566247778622"><ele>236.5</ele><time>2026-04-19T13:11:16.998Z</time></trkpt><trkpt lat="44.86633445779152" lon="9.065523781306357"><ele>237.25</ele><time>2026-04-19T13:11:17.998Z</time></trkpt><trkpt lat="44.866430893841006" lon="9.065392421526138"><ele>238.0</ele><time>2026-04-19T13:11:18.998Z</time></trkpt><trkpt lat="44.86651784912512" lon="9.065283080122732"><ele>238.0</ele><time>2026-04-19T13:11:19.998Z</time></trkpt><trkpt lat="44.86659361731072" lon="9.065202207488108"><ele>238.0</ele><time>2026-04-19T13:11:20.998Z</time></trkpt><trkpt lat="44.866653038124554" lon="9.065126205206575"><ele>238.0</ele><time>2026-04-19T13:11:21.998Z</time></trkpt><trkpt lat="44.86668207362659" lon="9.065028373000185"><ele>238.0</ele><time>2026-04-19T13:11:22.999Z</time></trkpt><trkpt lat="44.866698516911015" lon="9.064922640507547"><ele>238.0</ele><time>2026-04-19T13:11:23.999Z</time></trkpt><trkpt lat="44.86661120322736" lon="9.064787699755858"><ele>237.75</ele><time>2026-04-19T13:11:24.999Z</time></trkpt><trkpt lat="44.86651313329019" lon="9.064680529964386"><ele>237.5</ele><time>2026-04-19T13:11:25.999Z</time></trkpt><trkpt lat="44.86641052154483" lon="9.064544472631361"><ele>237.25</ele><time>2026-04-19T13:11:26.999Z</time></trkpt><trkpt lat="44.86628945378139" lon="9.064402105303543"><ele>237.0</ele><time>2026-04-19T13:11:27.999Z</time></trkpt><trkpt lat="44.8661898082863" lon="9.064292323044594"><ele>237.0</ele><time>2026-04-19T13:11:28.999Z</time></trkpt><trkpt lat="44.86609532789076" lon="9.06416665790372"><ele>237.0</ele><time>2026-04-19T13:11:29.999Z</time></trkpt><trkpt lat="44.86603285718226" lon="9.064085800777757"><ele>237.0</ele><time>2026-04-19T13:11:30.999Z</time></trkpt><trkpt lat="44.865967216473884" lon="9.063988230516225"><ele>237.0</ele><time>2026-04-19T13:11:31.999Z</time></trkpt><trkpt lat="44.86594301369244" lon="9.06388930367765"><ele>237.0</ele><time>2026-04-19T13:11:32.999Z</time></trkpt><trkpt lat="44.86597676494102" lon="9.063779147566962"><ele>237.0</ele><time>2026-04-19T13:11:33.999Z</time></trkpt><trkpt lat="44.86608197767785" lon="9.063714638119395"><ele>237.0</ele><time>2026-04-19T13:11:34.999Z</time></trkpt><trkpt lat="44.86616295127756" lon="9.063597676088682"><ele>237.0</ele><time>2026-04-19T13:11:35.999Z</time></trkpt><trkpt lat="44.86623994914929" lon="9.063474042827092"><ele>237.0</ele><time>2026-04-19T13:11:36.999Z</time></trkpt><trkpt lat="44.866319533243775" lon="9.063383581981983"><ele>237.0</ele><time>2026-04-19T13:11:37.999Z</time></trkpt><trkpt lat="44.86640101804676" lon="9.063252991304243"><ele>237.0</ele><time>2026-04-19T13:11:38.999Z</time></trkpt><trkpt lat="44.866480332942466" lon="9.06312266836425"><ele>237.0</ele><time>2026-04-19T13:11:39.999Z</time></trkpt><trkpt lat="44.86657079705064" lon="9.063000756774644"><ele>237.0</ele><time>2026-04-19T13:11:40.999Z</time></trkpt><trkpt lat="44.866629533656315" lon="9.062859704368822"><ele>237.0</ele><time>2026-04-19T13:11:41.999Z</time></trkpt><trkpt lat="44.86667670789287" lon="9.062686311858352"><ele>237.0</ele><time>2026-04-19T13:11:42.999Z</time></trkpt><trkpt lat="44.86669715768527" lon="9.062518073774143"><ele>237.0</ele><time>2026-04-19T13:11:43.999Z</time></trkpt><trkpt lat="44.86668473997258" lon="9.062351781437389"><ele>237.0</ele><time>2026-04-19T13:11:44.999Z</time></trkpt><trkpt lat="44.86667340044035" lon="9.062195552397695"><ele>237.0</ele><time>2026-04-19T13:11:45.999Z</time></trkpt><trkpt lat="44.86667301411357" lon="9.062014452584002"><ele>238.0</ele><time>2026-04-19T13:11:46.999Z</time></trkpt><trkpt lat="44.8666925765294" lon="9.061877215144143"><ele>239.0</ele><time>2026-04-19T13:11:47.999Z</time></trkpt><trkpt lat="44.86673618214667" lon="9.06173025259202"><ele>240.0</ele><time>2026-04-19T13:11:48.999Z</time></trkpt><trkpt lat="44.86679599262704" lon="9.061586112972611"><ele>241.0</ele><time>2026-04-19T13:11:49.999Z</time></trkpt><trkpt lat="44.866867792526186" lon="9.061452942228929"><ele>242.0</ele><time>2026-04-19T13:11:50.999Z</time></trkpt><trkpt lat="44.86695889435786" lon="9.06132758791197"><ele>244.25</ele><time>2026-04-19T13:11:51.999Z</time></trkpt><trkpt lat="44.86706590183983" lon="9.061231816404367"><ele>246.5</ele><time>2026-04-19T13:11:52.999Z</time></trkpt><trkpt lat="44.86717237841268" lon="9.061145229895724"><ele>248.75</ele><time>2026-04-19T13:11:53.999Z</time></trkpt><trkpt lat="44.86727051846789" lon="9.061051257902609"><ele>251.0</ele><time>2026-04-19T13:11:54.999Z</time></trkpt><trkpt lat="44.86738739879954" lon="9.060973537726747"><ele>251.0</ele><time>2026-04-19T13:11:55.999Z</time></trkpt><trkpt lat="44.86750663450521" lon="9.060875920816954"><ele>251.0</ele><time>2026-04-19T13:11:56.999Z</time></trkpt><trkpt lat="44.867629009158485" lon="9.060784519708548"><ele>251.0</ele><time>2026-04-19T13:11:57.999Z</time></trkpt><trkpt lat="44.867755187704205" lon="9.06068746126216"><ele>251.0</ele><time>2026-04-19T13:11:58.999Z</time></trkpt><trkpt lat="44.86788094999262" lon="9.06059164305891"><ele>251.75</ele><time>2026-04-19T13:11:59.999Z</time></trkpt><trkpt lat="44.867997816073334" lon="9.060514907342412"><ele>252.5</ele><time>2026-04-19T13:12:00.999Z</time></trkpt><trkpt lat="44.86810415150055" lon="9.060433164967485"><ele>253.25</ele><time>2026-04-19T13:12:01.999Z</time></trkpt><trkpt lat="44.86818295224377" lon="9.060311812701471"><ele>254.0</ele><time>2026-04-19T13:12:02.999Z</time></trkpt><trkpt lat="44.86822323150458" lon="9.060122675560402"><ele>254.0</ele><time>2026-04-19T13:12:03.999Z</time></trkpt><trkpt lat="44.86822241625488" lon="9.059955994358662"><ele>254.0</ele><time>2026-04-19T13:12:04.999Z</time></trkpt><trkpt lat="44.86824827256065" lon="9.059797253055384"><ele>254.0</ele><time>2026-04-19T13:12:05.999Z</time></trkpt><trkpt lat="44.8683227546546" lon="9.059644817205276"><ele>254.0</ele><time>2026-04-19T13:12:06.999Z</time></trkpt><trkpt lat="44.8684164946494" lon="9.059527681476677"><ele>254.0</ele><time>2026-04-19T13:12:07.999Z</time></trkpt><trkpt lat="44.86850236061672" lon="9.059417194480647"><ele>253.99999999999997</ele><time>2026-04-19T13:12:08.999Z</time></trkpt><trkpt lat="44.86857450570819" lon="9.059354679359446"><ele>253.99999999999997</ele><time>2026-04-19T13:12:09.999Z</time></trkpt><trkpt lat="44.86866379723702" lon="9.059286388540245"><ele>254.0</ele><time>2026-04-19T13:12:10.999Z</time></trkpt><trkpt lat="44.86873428887513" lon="9.059202274177196"><ele>254.0</ele><time>2026-04-19T13:12:11.999Z</time></trkpt><trkpt lat="44.86882743034282" lon="9.059182623308681"><ele>254.0</ele><time>2026-04-19T13:12:12.999Z</time></trkpt><trkpt lat="44.86892250986919" lon="9.059183345133759"><ele>253.99999999999997</ele><time>2026-04-19T13:12:13.999Z</time></trkpt><trkpt lat="44.86901962695236" lon="9.05921694229351"><ele>253.99999999999997</ele><time>2026-04-19T13:12:14.999Z</time></trkpt><trkpt lat="44.86911708266504" lon="9.059272060418007"><ele>254.0</ele><time>2026-04-19T13:12:15.999Z</time></trkpt><trkpt lat="44.8692229224335" lon="9.059351394573095"><ele>254.0</ele><time>2026-04-19T13:12:16.999Z</time></trkpt><trkpt lat="44.86934903846804" lon="9.059407854724997"><ele>253.25</ele><time>2026-04-19T13:12:17.999Z</time></trkpt><trkpt lat="44.86947061180931" lon="9.059486604099456"><ele>252.5</ele><time>2026-04-19T13:12:18.999Z</time></trkpt><trkpt lat="44.86961068850543" lon="9.05952017669406"><ele>251.75</ele><time>2026-04-19T13:12:19.999Z</time></trkpt><trkpt lat="44.869757674872325" lon="9.059538310120706"><ele>251.0</ele><time>2026-04-19T13:12:20.999Z</time></trkpt><trkpt lat="44.8699054956639" lon="9.059538274741065"><ele>251.0</ele><time>2026-04-19T13:12:21.999Z</time></trkpt><trkpt lat="44.87005265995636" lon="9.059528345161869"><ele>251.0</ele><time>2026-04-19T13:12:22.999Z</time></trkpt><trkpt lat="44.87018939156196" lon="9.059504779523627"><ele>251.0</ele><time>2026-04-19T13:12:23.999Z</time></trkpt><trkpt lat="44.870315418404154" lon="9.059471298804723"><ele>251.0</ele><time>2026-04-19T13:12:24.999Z</time></trkpt><trkpt lat="44.87043359093765" lon="9.059416950757017"><ele>250.25</ele><time>2026-04-19T13:12:25.999Z</time></trkpt><trkpt lat="44.870530518442855" lon="9.059323394719401"><ele>249.5</ele><time>2026-04-19T13:12:26.999Z</time></trkpt><trkpt lat="44.87062193961075" lon="9.059229126721373"><ele>248.75</ele><time>2026-04-19T13:12:27.999Z</time></trkpt><trkpt lat="44.87069949341511" lon="9.059102330204196"><ele>248.0</ele><time>2026-04-19T13:12:28.999Z</time></trkpt><trkpt lat="44.87076412749747" lon="9.058948001429236"><ele>248.0</ele><time>2026-04-19T13:12:29.999Z</time></trkpt><trkpt lat="44.87080599764566" lon="9.058785211786839"><ele>248.0</ele><time>2026-04-19T13:12:30.999Z</time></trkpt><trkpt lat="44.87081407137661" lon="9.058622251870439"><ele>248.0</ele><time>2026-04-19T13:12:31.999Z</time></trkpt><trkpt lat="44.870792937012475" lon="9.058466247117998"><ele>248.0</ele><time>2026-04-19T13:12:32.999Z</time></trkpt><trkpt lat="44.870789699192734" lon="9.058332279223874"><ele>248.0</ele><time>2026-04-19T13:12:33.999Z</time></trkpt><trkpt lat="44.870795351448024" lon="9.058220759152697"><ele>248.2</ele><time>2026-04-19T13:12:34.999Z</time></trkpt><trkpt lat="44.870851457052446" lon="9.058142571191649"><ele>248.4</ele><time>2026-04-19T13:12:35.999Z</time></trkpt><trkpt lat="44.87093945770156" lon="9.058108384316444"><ele>248.59999999999997</ele><time>2026-04-19T13:12:36.999Z</time></trkpt><trkpt lat="44.87102914651833" lon="9.05817824161852"><ele>248.79999999999998</ele><time>2026-04-19T13:12:37.999Z</time></trkpt><trkpt lat="44.87111935938528" lon="9.058254105348913"><ele>249.0</ele><time>2026-04-19T13:12:38.999Z</time></trkpt><trkpt lat="44.871229694123855" lon="9.058347125093633"><ele>249.0</ele><time>2026-04-19T13:12:39.999Z</time></trkpt><trkpt lat="44.87134491006714" lon="9.058445559351501"><ele>249.0</ele><time>2026-04-19T13:12:40.999Z</time></trkpt><trkpt lat="44.87145652229304" lon="9.05854059349734"><ele>249.0</ele><time>2026-04-19T13:12:41.999Z</time></trkpt><trkpt lat="44.87156463116798" lon="9.058631398529343"><ele>249.0</ele><time>2026-04-19T13:12:42.999Z</time></trkpt><trkpt lat="44.87166387517323" lon="9.058714757589396"><ele>249.0</ele><time>2026-04-19T13:12:43.999Z</time></trkpt><trkpt lat="44.871771638799736" lon="9.058774618480449"><ele>248.99999999999997</ele><time>2026-04-19T13:12:44.999Z</time></trkpt><trkpt lat="44.87185626804762" lon="9.058843483775203"><ele>248.99999999999997</ele><time>2026-04-19T13:12:45.999Z</time></trkpt><trkpt lat="44.87191615182096" lon="9.058898198220254"><ele>249.0</ele><time>2026-04-19T13:12:46.999Z</time></trkpt><trkpt lat="44.87198821681259" lon="9.058889790050973"><ele>249.0</ele><time>2026-04-19T13:12:47.999Z</time></trkpt><trkpt lat="44.87207502663917" lon="9.058812779536655"><ele>247.75</ele><time>2026-04-19T13:12:48.999Z</time></trkpt><trkpt lat="44.872175294106356" lon="9.058717111145848"><ele>246.5</ele><time>2026-04-19T13:12:49.999Z</time></trkpt><trkpt lat="44.87228309107977" lon="9.058615531096642"><ele>245.25</ele><time>2026-04-19T13:12:50.999Z</time></trkpt><trkpt lat="44.87241069832816" lon="9.058531767395248"><ele>244.0</ele><time>2026-04-19T13:12:51.999Z</time></trkpt><trkpt lat="44.87253135925499" lon="9.058429943692708"><ele>243.0</ele><time>2026-04-19T13:12:52.999Z</time></trkpt><trkpt lat="44.87264091047083" lon="9.05831718714159"><ele>242.0</ele><time>2026-04-19T13:12:53.999Z</time></trkpt><trkpt lat="44.87275182294459" lon="9.058226957581109"><ele>241.0</ele><time>2026-04-19T13:12:54.999Z</time></trkpt><trkpt lat="44.87286377973941" lon="9.058134090815924"><ele>240.0</ele><time>2026-04-19T13:12:55.999Z</time></trkpt><trkpt lat="44.87298405372604" lon="9.058032269355929"><ele>240.0</ele><time>2026-04-19T13:12:56.999Z</time></trkpt><trkpt lat="44.87311598014186" lon="9.057948290749854"><ele>240.0</ele><time>2026-04-19T13:12:57.998Z</time></trkpt><trkpt lat="44.87324052386661" lon="9.057858488224731"><ele>240.0</ele><time>2026-04-19T13:12:58.998Z</time></trkpt><trkpt lat="44.87336210587537" lon="9.057740714120275"><ele>240.0</ele><time>2026-04-19T13:12:59.998Z</time></trkpt><trkpt lat="44.873486496261044" lon="9.057640790174398"><ele>239.75</ele><time>2026-04-19T13:13:00.998Z</time></trkpt><trkpt lat="44.873624833889444" lon="9.057550230595764"><ele>239.5</ele><time>2026-04-19T13:13:01.998Z</time></trkpt><trkpt lat="44.8737538800642" lon="9.057446683875664"><ele>239.25</ele><time>2026-04-19T13:13:02.998Z</time></trkpt><trkpt lat="44.87387220351114" lon="9.057352429360419"><ele>239.0</ele><time>2026-04-19T13:13:03.998Z</time></trkpt><trkpt lat="44.87398651908579" lon="9.057257970739732"><ele>239.0</ele><time>2026-04-19T13:13:04.998Z</time></trkpt><trkpt lat="44.87408959682729" lon="9.05714029458245"><ele>239.0</ele><time>2026-04-19T13:13:05.998Z</time></trkpt><trkpt lat="44.87420584162017" lon="9.057042064856882"><ele>239.0</ele><time>2026-04-19T13:13:06.998Z</time></trkpt><trkpt lat="44.87433206692933" lon="9.056930011320107"><ele>239.0</ele><time>2026-04-19T13:13:07.998Z</time></trkpt><trkpt lat="44.874462648014266" lon="9.056821774682474"><ele>238.75</ele><time>2026-04-19T13:13:08.998Z</time></trkpt><trkpt lat="44.874591932121135" lon="9.056713403865315"><ele>238.5</ele><time>2026-04-19T13:13:09.998Z</time></trkpt><trkpt lat="44.874725272567765" lon="9.056600702884307"><ele>238.25</ele><time>2026-04-19T13:13:10.998Z</time></trkpt><trkpt lat="44.87485462390829" lon="9.056515623993409"><ele>238.0</ele><time>2026-04-19T13:13:11.998Z</time></trkpt><trkpt lat="44.874982796564105" lon="9.056405849404133"><ele>237.0</ele><time>2026-04-19T13:13:12.998Z</time></trkpt><trkpt lat="44.875122586054324" lon="9.056284517153285"><ele>236.0</ele><time>2026-04-19T13:13:13.998Z</time></trkpt><trkpt lat="44.8752572931272" lon="9.056140327751526"><ele>235.0</ele><time>2026-04-19T13:13:14.998Z</time></trkpt><trkpt lat="44.87539472343569" lon="9.056029712394588"><ele>235.0</ele><time>2026-04-19T13:13:15.998Z</time></trkpt><trkpt lat="44.87554211325398" lon="9.05593780548378"><ele>235.0</ele><time>2026-04-19T13:13:16.998Z</time></trkpt><trkpt lat="44.87568232028703" lon="9.055829234716759"><ele>235.0</ele><time>2026-04-19T13:13:17.998Z</time></trkpt><trkpt lat="44.87579839981099" lon="9.055715082682873"><ele>234.25</ele><time>2026-04-19T13:13:18.998Z</time></trkpt><trkpt lat="44.87591265753946" lon="9.055636203917983"><ele>233.5</ele><time>2026-04-19T13:13:19.998Z</time></trkpt><trkpt lat="44.876017329636376" lon="9.055557347043566"><ele>232.75</ele><time>2026-04-19T13:13:20.998Z</time></trkpt><trkpt lat="44.876107109829924" lon="9.055475518585052"><ele>232.0</ele><time>2026-04-19T13:13:21.998Z</time></trkpt><trkpt lat="44.87618769416864" lon="9.055390351374742"><ele>232.0</ele><time>2026-04-19T13:13:22.998Z</time></trkpt><trkpt lat="44.87627476426429" lon="9.05536055558582"><ele>232.0</ele><time>2026-04-19T13:13:23.998Z</time></trkpt><trkpt lat="44.876347868872166" lon="9.055297282938799"><ele>232.0</ele><time>2026-04-19T13:13:24.998Z</time></trkpt><trkpt lat="44.87644136525573" lon="9.055351828528368"><ele>232.0</ele><time>2026-04-19T13:13:25.998Z</time></trkpt><trkpt lat="44.876550437879686" lon="9.05540690802942"><ele>232.0</ele><time>2026-04-19T13:13:26.998Z</time></trkpt><trkpt lat="44.87667822616668" lon="9.055502452471375"><ele>231.33333333333331</ele><time>2026-04-19T13:13:27.998Z</time></trkpt><trkpt lat="44.87683558128959" lon="9.055596717344304"><ele>230.66666666666669</ele><time>2026-04-19T13:13:29Z</time></trkpt><trkpt lat="44.87699359057113" lon="9.055681199568118"><ele>230.0</ele><time>2026-04-19T13:13:30Z</time></trkpt><trkpt lat="44.87714067671289" lon="9.055756522909816"><ele>229.0</ele><time>2026-04-19T13:13:31Z</time></trkpt><trkpt lat="44.87727066681078" lon="9.055795991563334"><ele>228.0</ele><time>2026-04-19T13:13:32Z</time></trkpt><trkpt lat="44.877390347268694" lon="9.0558549485343"><ele>227.0</ele><time>2026-04-19T13:13:33Z</time></trkpt><trkpt lat="44.877506586864" lon="9.055892580981316"><ele>226.0</ele><time>2026-04-19T13:13:34Z</time></trkpt><trkpt lat="44.87762191776802" lon="9.055917230646857"><ele>225.5</ele><time>2026-04-19T13:13:35Z</time></trkpt><trkpt lat="44.877736731793064" lon="9.055926226070499"><ele>225.0</ele><time>2026-04-19T13:13:36Z</time></trkpt><trkpt lat="44.87785316704724" lon="9.055906011075159"><ele>224.5</ele><time>2026-04-19T13:13:37Z</time></trkpt><trkpt lat="44.87797825292536" lon="9.055852922503552"><ele>224.0</ele><time>2026-04-19T13:13:38Z</time></trkpt><trkpt lat="44.8781006062687" lon="9.0557769219576"><ele>224.0</ele><time>2026-04-19T13:13:39Z</time></trkpt><trkpt lat="44.87822431831742" lon="9.055684432563867"><ele>224.0</ele><time>2026-04-19T13:13:40Z</time></trkpt><trkpt lat="44.8783594898237" lon="9.055602010542518"><ele>224.0</ele><time>2026-04-19T13:13:41Z</time></trkpt><trkpt lat="44.8784999457925" lon="9.05556094183212"><ele>224.0</ele><time>2026-04-19T13:13:42Z</time></trkpt><trkpt lat="44.87863356543249" lon="9.055499239734386"><ele>223.39999999999998</ele><time>2026-04-19T13:13:43Z</time></trkpt><trkpt lat="44.87874433229478" lon="9.055408699887014"><ele>222.79999999999998</ele><time>2026-04-19T13:13:44Z</time></trkpt><trkpt lat="44.8788327668856" lon="9.055361597909169"><ele>222.20000000000002</ele><time>2026-04-19T13:13:45Z</time></trkpt><trkpt lat="44.878923676508236" lon="9.055379566891215"><ele>221.60000000000002</ele><time>2026-04-19T13:13:46Z</time></trkpt><trkpt lat="44.87900366618957" lon="9.055475002565995"><ele>221.0</ele><time>2026-04-19T13:13:47Z</time></trkpt><trkpt lat="44.87904953888167" lon="9.055639157637009"><ele>221.20000000000002</ele><time>2026-04-19T13:13:48Z</time></trkpt><trkpt lat="44.87912870355858" lon="9.055793272663443"><ele>221.40000000000003</ele><time>2026-04-19T13:13:48.999Z</time></trkpt><trkpt lat="44.87918729157369" lon="9.055939565300761"><ele>221.6</ele><time>2026-04-19T13:13:49.999Z</time></trkpt><trkpt lat="44.87926156641668" lon="9.056027390778498"><ele>221.8</ele><time>2026-04-19T13:13:50.999Z</time></trkpt><trkpt lat="44.879345112844106" lon="9.056067592329748"><ele>222.0</ele><time>2026-04-19T13:13:51.999Z</time></trkpt><trkpt lat="44.87943706940201" lon="9.056081394268036"><ele>222.0</ele><time>2026-04-19T13:13:52.999Z</time></trkpt><trkpt lat="44.87954495012616" lon="9.055993907155251"><ele>222.0</ele><time>2026-04-19T13:13:53.999Z</time></trkpt><trkpt lat="44.87965433869383" lon="9.055888397417318"><ele>222.0</ele><time>2026-04-19T13:13:54.999Z</time></trkpt><trkpt lat="44.87976968600168" lon="9.055774355593435"><ele>222.0</ele><time>2026-04-19T13:13:55.999Z</time></trkpt><trkpt lat="44.8798936434499" lon="9.055654270254333"><ele>222.25</ele><time>2026-04-19T13:13:56.999Z</time></trkpt><trkpt lat="44.880033709739315" lon="9.055552492845257"><ele>222.5</ele><time>2026-04-19T13:13:57.999Z</time></trkpt><trkpt lat="44.88014788654956" lon="9.05542423033418"><ele>222.75</ele><time>2026-04-19T13:13:58.999Z</time></trkpt><trkpt lat="44.88026200021801" lon="9.055329309314539"><ele>223.0</ele><time>2026-04-19T13:13:59.999Z</time></trkpt><trkpt lat="44.88036526699545" lon="9.055230396794693"><ele>223.0</ele><time>2026-04-19T13:14:00.999Z</time></trkpt><trkpt lat="44.88046211910202" lon="9.05513732196534"><ele>223.0</ele><time>2026-04-19T13:14:01.999Z</time></trkpt><trkpt lat="44.88054504912891" lon="9.055051629298564"><ele>223.0</ele><time>2026-04-19T13:14:02.999Z</time></trkpt><trkpt lat="44.880625088327186" lon="9.05497136424734"><ele>223.0</ele><time>2026-04-19T13:14:03.999Z</time></trkpt><trkpt lat="44.88068817444223" lon="9.054905644571347"><ele>223.0</ele><time>2026-04-19T13:14:04.999Z</time></trkpt><trkpt lat="44.88074720773022" lon="9.054837234327298"><ele>226.0</ele><time>2026-04-19T13:14:05.999Z</time></trkpt><trkpt lat="44.880777877779735" lon="9.054721199194585"><ele>229.0</ele><time>2026-04-19T13:14:07.999Z</time></trkpt><trkpt lat="44.88065471770019" lon="9.05458795249929"><ele>232.0</ele><time>2026-04-19T13:14:09.999Z</time></trkpt><trkpt lat="44.880547337142936" lon="9.054550735687988"><ele>235.0</ele><time>2026-04-19T13:14:10.999Z</time></trkpt><trkpt lat="44.88042898122692" lon="9.054518246689458"><ele>235.0</ele><time>2026-04-19T13:14:11.999Z</time></trkpt><trkpt lat="44.88030156659226" lon="9.054489245554029"><ele>235.0</ele><time>2026-04-19T13:14:12.999Z</time></trkpt><trkpt lat="44.880176562319306" lon="9.054457395837142"><ele>235.0</ele><time>2026-04-19T13:14:13.999Z</time></trkpt><trkpt lat="44.88005990379355" lon="9.054405436910136"><ele>235.0</ele><time>2026-04-19T13:14:14.999Z</time></trkpt><trkpt lat="44.879943759033694" lon="9.054371889146484"><ele>234.5</ele><time>2026-04-19T13:14:15.999Z</time></trkpt><trkpt lat="44.87981838002633" lon="9.05434647459326"><ele>234.0</ele><time>2026-04-19T13:14:16.999Z</time></trkpt><trkpt lat="44.879683055084755" lon="9.054274662380658"><ele>233.5</ele><time>2026-04-19T13:14:17.999Z</time></trkpt><trkpt lat="44.87953979303359" lon="9.054190700829814"><ele>233.0</ele><time>2026-04-19T13:14:18.999Z</time></trkpt><trkpt lat="44.87941153662736" lon="9.054122837420392"><ele>234.2</ele><time>2026-04-19T13:14:19.999Z</time></trkpt><trkpt lat="44.8792908156209" lon="9.054090286384165"><ele>235.4</ele><time>2026-04-19T13:14:20.999Z</time></trkpt><trkpt lat="44.87918193598697" lon="9.054101191806735"><ele>236.59999999999997</ele><time>2026-04-19T13:14:21.999Z</time></trkpt><trkpt lat="44.879080040303045" lon="9.054108560613361"><ele>237.79999999999998</ele><time>2026-04-19T13:14:22.999Z</time></trkpt><trkpt lat="44.87900059924508" lon="9.054060148502952"><ele>239.0</ele><time>2026-04-19T13:14:23.999Z</time></trkpt><trkpt lat="44.878954850188286" lon="9.053932048525569"><ele>239.0</ele><time>2026-04-19T13:14:24.999Z</time></trkpt><trkpt lat="44.878980110840956" lon="9.053771567008882"><ele>238.99999999999997</ele><time>2026-04-19T13:14:25.999Z</time></trkpt><trkpt lat="44.878973498960114" lon="9.053609948451125"><ele>238.99999999999997</ele><time>2026-04-19T13:14:26.999Z</time></trkpt><trkpt lat="44.878943930766944" lon="9.05344737282684"><ele>239.0</ele><time>2026-04-19T13:14:27.999Z</time></trkpt><trkpt lat="44.87891891288266" lon="9.053312409273914"><ele>239.0</ele><time>2026-04-19T13:14:28.999Z</time></trkpt><trkpt lat="44.87881103534465" lon="9.053254048089137"><ele>241.0</ele><time>2026-04-19T13:14:29.999Z</time></trkpt><trkpt lat="44.87869273604286" lon="9.05323154819704"><ele>243.0</ele><time>2026-04-19T13:14:30.999Z</time></trkpt><trkpt lat="44.87857400416894" lon="9.053258488886854"><ele>245.0</ele><time>2026-04-19T13:14:31.999Z</time></trkpt><trkpt lat="44.87844584024924" lon="9.053279408173108"><ele>247.0</ele><time>2026-04-19T13:14:32.999Z</time></trkpt><trkpt lat="44.87832614324353" lon="9.053264881430099"><ele>247.0</ele><time>2026-04-19T13:14:33.999Z</time></trkpt><trkpt lat="44.878207797003434" lon="9.053242264280584"><ele>247.0</ele><time>2026-04-19T13:14:34.999Z</time></trkpt><trkpt lat="44.87810778552244" lon="9.053185839836848"><ele>247.0</ele><time>2026-04-19T13:14:35.999Z</time></trkpt><trkpt lat="44.878022510663506" lon="9.053102974565732"><ele>247.0</ele><time>2026-04-19T13:14:36.999Z</time></trkpt><trkpt lat="44.87799062543699" lon="9.052970321179854"><ele>247.0</ele><time>2026-04-19T13:14:37.999Z</time></trkpt><trkpt lat="44.877971051393025" lon="9.052825760517745"><ele>247.0</ele><time>2026-04-19T13:14:38.999Z</time></trkpt><trkpt lat="44.87794048345032" lon="9.052701881708392"><ele>247.0</ele><time>2026-04-19T13:14:39.999Z</time></trkpt><trkpt lat="44.877887617877086" lon="9.052611050548574"><ele>247.0</ele><time>2026-04-19T13:14:40.999Z</time></trkpt><trkpt lat="44.877772510979575" lon="9.052603633516243"><ele>247.0</ele><time>2026-04-19T13:14:41.999Z</time></trkpt><trkpt lat="44.87765244163414" lon="9.052659901095556"><ele>247.0</ele><time>2026-04-19T13:14:42.999Z</time></trkpt><trkpt lat="44.87754278537118" lon="9.052678610435224"><ele>247.8</ele><time>2026-04-19T13:14:43.999Z</time></trkpt><trkpt lat="44.877450417971126" lon="9.05269570194712"><ele>248.6</ele><time>2026-04-19T13:14:44.999Z</time></trkpt><trkpt lat="44.87734285342864" lon="9.05265915507887"><ele>249.40000000000003</ele><time>2026-04-19T13:14:46.999Z</time></trkpt><trkpt lat="44.87729428963673" lon="9.052581761111906"><ele>250.20000000000002</ele><time>2026-04-19T13:14:47.999Z</time></trkpt><trkpt lat="44.87723823212326" lon="9.052492091824096"><ele>251.0</ele><time>2026-04-19T13:14:48.999Z</time></trkpt><trkpt lat="44.87718570871571" lon="9.0523689490191"><ele>252.0</ele><time>2026-04-19T13:14:49.999Z</time></trkpt><trkpt lat="44.87713225613212" lon="9.05224422492403"><ele>253.00000000000003</ele><time>2026-04-19T13:14:50.999Z</time></trkpt><trkpt lat="44.87708377776392" lon="9.052110046692754"><ele>254.00000000000003</ele><time>2026-04-19T13:14:51.999Z</time></trkpt><trkpt lat="44.87702962222275" lon="9.05198256954136"><ele>255.0</ele><time>2026-04-19T13:14:52.999Z</time></trkpt><trkpt lat="44.87697268013278" lon="9.051835569052951"><ele>256.0</ele><time>2026-04-19T13:14:53.999Z</time></trkpt><trkpt lat="44.876920385736504" lon="9.05168594878099"><ele>257.25</ele><time>2026-04-19T13:14:54.999Z</time></trkpt><trkpt lat="44.87687277936266" lon="9.051524276984557"><ele>258.5</ele><time>2026-04-19T13:14:55.999Z</time></trkpt><trkpt lat="44.87682378755619" lon="9.05136446299245"><ele>259.75</ele><time>2026-04-19T13:14:56.999Z</time></trkpt><trkpt lat="44.87679201442284" lon="9.051188684996022"><ele>261.0</ele><time>2026-04-19T13:14:57.999Z</time></trkpt><trkpt lat="44.87677587937369" lon="9.05100425884861"><ele>261.5</ele><time>2026-04-19T13:14:58.999Z</time></trkpt><trkpt lat="44.876763950892794" lon="9.050819787046182"><ele>262.0</ele><time>2026-04-19T13:14:59.999Z</time></trkpt><trkpt lat="44.87674152391002" lon="9.05064288180245"><ele>262.5</ele><time>2026-04-19T13:15:00.999Z</time></trkpt><trkpt lat="44.8766871963038" lon="9.05047201962961"><ele>263.0</ele><time>2026-04-19T13:15:01.999Z</time></trkpt><trkpt lat="44.87661384820659" lon="9.05030136075115"><ele>265.33333333333337</ele><time>2026-04-19T13:15:02.999Z</time></trkpt><trkpt lat="44.87650282091894" lon="9.050170929279803"><ele>267.6666666666667</ele><time>2026-04-19T13:15:03.999Z</time></trkpt><trkpt lat="44.8763806910412" lon="9.050034487440819"><ele>270.0</ele><time>2026-04-19T13:15:04.999Z</time></trkpt><trkpt lat="44.876268357653665" lon="9.049881724194362"><ele>272.3333333333333</ele><time>2026-04-19T13:15:05.999Z</time></trkpt><trkpt lat="44.87615498512761" lon="9.049730889898692"><ele>274.66666666666663</ele><time>2026-04-19T13:15:06.999Z</time></trkpt><trkpt lat="44.87603375668042" lon="9.049591570006198"><ele>277.0</ele><time>2026-04-19T13:15:07.999Z</time></trkpt><trkpt lat="44.87591914436508" lon="9.049430784896614"><ele>277.0</ele><time>2026-04-19T13:15:08.998Z</time></trkpt><trkpt lat="44.87580316873609" lon="9.049287486596594"><ele>277.0</ele><time>2026-04-19T13:15:09.998Z</time></trkpt><trkpt lat="44.875705394877905" lon="9.04916456732131"><ele>277.0</ele><time>2026-04-19T13:15:10.998Z</time></trkpt><trkpt lat="44.87561753984846" lon="9.049053968511881"><ele>277.0</ele><time>2026-04-19T13:15:11.998Z</time></trkpt><trkpt lat="44.875524988811605" lon="9.048937575193577"><ele>279.75</ele><time>2026-04-19T13:15:12.998Z</time></trkpt><trkpt lat="44.87544855159269" lon="9.048783376331249"><ele>282.5</ele><time>2026-04-19T13:15:13.998Z</time></trkpt><trkpt lat="44.875367274345315" lon="9.048638632503934"><ele>285.25</ele><time>2026-04-19T13:15:14.998Z</time></trkpt><trkpt lat="44.87528141717599" lon="9.048500784366484"><ele>288.0</ele><time>2026-04-19T13:15:15.998Z</time></trkpt><trkpt lat="44.87525058423407" lon="9.04832625511845"><ele>290.8</ele><time>2026-04-19T13:15:16.998Z</time></trkpt><trkpt lat="44.87523368102797" lon="9.048162270021185"><ele>293.6</ele><time>2026-04-19T13:15:17.998Z</time></trkpt><trkpt lat="44.875225975051805" lon="9.04800443604896"><ele>296.4</ele><time>2026-04-19T13:15:18.998Z</time></trkpt><trkpt lat="44.87526567443738" lon="9.047865883282652"><ele>299.2</ele><time>2026-04-19T13:15:19.998Z</time></trkpt><trkpt lat="44.87532515327483" lon="9.047748618761084"><ele>302.0</ele><time>2026-04-19T13:15:20.998Z</time></trkpt><trkpt lat="44.87540725278253" lon="9.047671501418877"><ele>302.0</ele><time>2026-04-19T13:15:21.998Z</time></trkpt><trkpt lat="44.87552228858625" lon="9.0476704184712"><ele>302.0</ele><time>2026-04-19T13:15:22.998Z</time></trkpt><trkpt lat="44.87563008596869" lon="9.047617089587039"><ele>302.0</ele><time>2026-04-19T13:15:23.998Z</time></trkpt><trkpt lat="44.87573630160156" lon="9.047583867015385"><ele>302.0</ele><time>2026-04-19T13:15:24.998Z</time></trkpt><trkpt lat="44.87580589440085" lon="9.047510964977189"><ele>302.0</ele><time>2026-04-19T13:15:25.998Z</time></trkpt><trkpt lat="44.87586089468044" lon="9.047434976304766"><ele>304.0</ele><time>2026-04-19T13:15:26.998Z</time></trkpt><trkpt lat="44.87585654432524" lon="9.047288155593622"><ele>306.0</ele><time>2026-04-19T13:15:27.998Z</time></trkpt><trkpt lat="44.87578429411852" lon="9.047151485841388"><ele>308.0</ele><time>2026-04-19T13:15:28.998Z</time></trkpt><trkpt lat="44.8757269857093" lon="9.047010753124981"><ele>310.0</ele><time>2026-04-19T13:15:29.998Z</time></trkpt><trkpt lat="44.87567503669423" lon="9.046837581111971"><ele>312.3333333333333</ele><time>2026-04-19T13:15:30.998Z</time></trkpt><trkpt lat="44.87567612335551" lon="9.046605246227113"><ele>314.6666666666667</ele><time>2026-04-19T13:15:31.998Z</time></trkpt><trkpt lat="44.875678637455486" lon="9.046348201166762"><ele>317.0</ele><time>2026-04-19T13:15:32.998Z</time></trkpt><trkpt lat="44.87568178593404" lon="9.04609483076557"><ele>317.0</ele><time>2026-04-19T13:15:33.998Z</time></trkpt><trkpt lat="44.875684806715725" lon="9.045851736882804"><ele>317.0</ele><time>2026-04-19T13:15:35Z</time></trkpt><trkpt lat="44.87568642892843" lon="9.045648456201281"><ele>317.0</ele><time>2026-04-19T13:15:36Z</time></trkpt><trkpt lat="44.875687246416014" lon="9.045472602027004"><ele>317.0</ele><time>2026-04-19T13:15:37Z</time></trkpt><trkpt lat="44.87568638854366" lon="9.045316875584174"><ele>317.2</ele><time>2026-04-19T13:15:38Z</time></trkpt><trkpt lat="44.8756826688443" lon="9.045172524528564"><ele>317.4</ele><time>2026-04-19T13:15:39Z</time></trkpt><trkpt lat="44.87567564108726" lon="9.045033865993272"><ele>317.6</ele><time>2026-04-19T13:15:40Z</time></trkpt><trkpt lat="44.87565321019059" lon="9.044899300297804"><ele>317.8</ele><time>2026-04-19T13:15:41Z</time></trkpt><trkpt lat="44.875603396199146" lon="9.044776432931611"><ele>318.0</ele><time>2026-04-19T13:15:42Z</time></trkpt><trkpt lat="44.875501844147564" lon="9.044670519063581"><ele>318.0</ele><time>2026-04-19T13:15:43Z</time></trkpt><trkpt lat="44.87539577477086" lon="9.044571255268934"><ele>318.0</ele><time>2026-04-19T13:15:44Z</time></trkpt><trkpt lat="44.87529760709882" lon="9.044443028970612"><ele>318.0</ele><time>2026-04-19T13:15:45Z</time></trkpt><trkpt lat="44.87518859820506" lon="9.044321873592498"><ele>318.0</ele><time>2026-04-19T13:15:46Z</time></trkpt><trkpt lat="44.87509128593014" lon="9.044209991280065"><ele>319.5</ele><time>2026-04-19T13:15:47Z</time></trkpt><trkpt lat="44.87500027736849" lon="9.044123851537309"><ele>321.0</ele><time>2026-04-19T13:15:48Z</time></trkpt><trkpt lat="44.874917244334306" lon="9.043989814235099"><ele>322.5</ele><time>2026-04-19T13:15:49Z</time></trkpt><trkpt lat="44.87482663878253" lon="9.043863551944234"><ele>324.0</ele><time>2026-04-19T13:15:50Z</time></trkpt><trkpt lat="44.87473648279645" lon="9.043725332352588"><ele>324.0</ele><time>2026-04-19T13:15:51Z</time></trkpt><trkpt lat="44.87465038134231" lon="9.043575275318938"><ele>324.0</ele><time>2026-04-19T13:15:52Z</time></trkpt><trkpt lat="44.874568862250136" lon="9.043421511635227"><ele>324.0</ele><time>2026-04-19T13:15:53Z</time></trkpt><trkpt lat="44.87448485893056" lon="9.043271741780408"><ele>324.0</ele><time>2026-04-19T13:15:54Z</time></trkpt><trkpt lat="44.87439153942368" lon="9.043144159950216"><ele>324.5</ele><time>2026-04-19T13:15:55Z</time></trkpt><trkpt lat="44.87427654348773" lon="9.043051982294376"><ele>325.0</ele><time>2026-04-19T13:15:56Z</time></trkpt><trkpt lat="44.87416158356397" lon="9.042953952760033"><ele>325.5</ele><time>2026-04-19T13:15:57Z</time></trkpt><trkpt lat="44.87404771697355" lon="9.042849100132873"><ele>326.0</ele><time>2026-04-19T13:15:58Z</time></trkpt><trkpt lat="44.87391714926529" lon="9.042782842341325"><ele>328.25</ele><time>2026-04-19T13:15:59Z</time></trkpt><trkpt lat="44.873798020031956" lon="9.04270814337304"><ele>330.5</ele><time>2026-04-19T13:16:00Z</time></trkpt><trkpt lat="44.8736845570018" lon="9.042649447178393"><ele>332.75</ele><time>2026-04-19T13:16:01Z</time></trkpt><trkpt lat="44.87355150766927" lon="9.0426618698121"><ele>335.0</ele><time>2026-04-19T13:16:02Z</time></trkpt><trkpt lat="44.8734133367124" lon="9.042675268604581"><ele>337.25</ele><time>2026-04-19T13:16:02.999Z</time></trkpt><trkpt lat="44.87327096974337" lon="9.04266946193551"><ele>339.5</ele><time>2026-04-19T13:16:03.999Z</time></trkpt><trkpt lat="44.87312340109295" lon="9.042680254749047"><ele>341.75</ele><time>2026-04-19T13:16:04.999Z</time></trkpt><trkpt lat="44.872988495734106" lon="9.04268228858853"><ele>344.0</ele><time>2026-04-19T13:16:05.999Z</time></trkpt><trkpt lat="44.87286265834938" lon="9.042664706939295"><ele>344.0</ele><time>2026-04-19T13:16:06.999Z</time></trkpt><trkpt lat="44.87275416854665" lon="9.042620106433924"><ele>344.0</ele><time>2026-04-19T13:16:07.999Z</time></trkpt><trkpt lat="44.87265733142317" lon="9.04254548778777"><ele>344.0</ele><time>2026-04-19T13:16:08.999Z</time></trkpt><trkpt lat="44.87257139658359" lon="9.042444550986215"><ele>344.0</ele><time>2026-04-19T13:16:09.999Z</time></trkpt><trkpt lat="44.87249996603611" lon="9.042326352766612"><ele>344.0</ele><time>2026-04-19T13:16:10.999Z</time></trkpt><trkpt lat="44.87243501700078" lon="9.042195659318292"><ele>346.0</ele><time>2026-04-19T13:16:11.999Z</time></trkpt><trkpt lat="44.87236791993204" lon="9.042063808602775"><ele>348.0</ele><time>2026-04-19T13:16:12.999Z</time></trkpt><trkpt lat="44.8723288005747" lon="9.041909346654027"><ele>350.0</ele><time>2026-04-19T13:16:13.999Z</time></trkpt><trkpt lat="44.872299594462326" lon="9.041747204956069"><ele>352.0</ele><time>2026-04-19T13:16:14.999Z</time></trkpt><trkpt lat="44.87228870378587" lon="9.041585340401767"><ele>352.0</ele><time>2026-04-19T13:16:15.999Z</time></trkpt><trkpt lat="44.8722415393362" lon="9.041416159508502"><ele>352.0</ele><time>2026-04-19T13:16:16.999Z</time></trkpt><trkpt lat="44.87220634915615" lon="9.04123270818856"><ele>352.0</ele><time>2026-04-19T13:16:17.999Z</time></trkpt><trkpt lat="44.87217169573184" lon="9.041041115770774"><ele>352.0</ele><time>2026-04-19T13:16:18.999Z</time></trkpt><trkpt lat="44.87213832687396" lon="9.040851457443418"><ele>350.25</ele><time>2026-04-19T13:16:19.999Z</time></trkpt><trkpt lat="44.87210633057244" lon="9.040670309652125"><ele>348.5</ele><time>2026-04-19T13:16:20.999Z</time></trkpt><trkpt lat="44.872070176299026" lon="9.040484109523145"><ele>346.75</ele><time>2026-04-19T13:16:21.999Z</time></trkpt><trkpt lat="44.872028196475064" lon="9.040309310373441"><ele>345.0</ele><time>2026-04-19T13:16:22.999Z</time></trkpt><trkpt lat="44.87197912145081" lon="9.040149779303372"><ele>345.0</ele><time>2026-04-19T13:16:23.999Z</time></trkpt><trkpt lat="44.87192269475165" lon="9.040010128783194"><ele>345.0</ele><time>2026-04-19T13:16:24.999Z</time></trkpt><trkpt lat="44.8718443674883" lon="9.039879249568383"><ele>345.0</ele><time>2026-04-19T13:16:25.999Z</time></trkpt><trkpt lat="44.871749673235904" lon="9.039762308191468"><ele>345.0</ele><time>2026-04-19T13:16:26.999Z</time></trkpt><trkpt lat="44.871666156982215" lon="9.039644879072187"><ele>346.2</ele><time>2026-04-19T13:16:27.999Z</time></trkpt><trkpt lat="44.87159837300315" lon="9.039538859436297"><ele>347.4</ele><time>2026-04-19T13:16:28.999Z</time></trkpt><trkpt lat="44.871566335625815" lon="9.039428962391979"><ele>348.6</ele><time>2026-04-19T13:16:29.999Z</time></trkpt><trkpt lat="44.871580588983" lon="9.039287482687218"><ele>349.8</ele><time>2026-04-19T13:16:30.999Z</time></trkpt><trkpt lat="44.87162276002556" lon="9.039136083989307"><ele>351.0</ele><time>2026-04-19T13:16:31.999Z</time></trkpt><trkpt lat="44.87168304700349" lon="9.038920164768317"><ele>351.3333333333333</ele><time>2026-04-19T13:16:32.999Z</time></trkpt><trkpt lat="44.87175237859912" lon="9.038687495966828"><ele>351.66666666666663</ele><time>2026-04-19T13:16:33.999Z</time></trkpt><trkpt lat="44.87183557679823" lon="9.038425918642817"><ele>352.0</ele><time>2026-04-19T13:16:34.999Z</time></trkpt><trkpt lat="44.871920366711116" lon="9.038159834404748"><ele>353.66666666666663</ele><time>2026-04-19T13:16:35.999Z</time></trkpt><trkpt lat="44.87199804391147" lon="9.037902974590468"><ele>355.3333333333333</ele><time>2026-04-19T13:16:36.999Z</time></trkpt><trkpt lat="44.872037810925484" lon="9.037670809053052"><ele>357.0</ele><time>2026-04-19T13:16:37.999Z</time></trkpt><trkpt lat="44.87208800938637" lon="9.037452404050628"><ele>357.0</ele><time>2026-04-19T13:16:38.999Z</time></trkpt><trkpt lat="44.87217016848704" lon="9.037282995410086"><ele>357.0</ele><time>2026-04-19T13:16:39.999Z</time></trkpt><trkpt lat="44.87224332327161" lon="9.03713099066405"><ele>357.0</ele><time>2026-04-19T13:16:40.999Z</time></trkpt><trkpt lat="44.8723080664798" lon="9.036980611910792"><ele>357.0</ele><time>2026-04-19T13:16:41.999Z</time></trkpt><trkpt lat="44.872391430600096" lon="9.036843867135275"><ele>357.0</ele><time>2026-04-19T13:16:42.999Z</time></trkpt><trkpt lat="44.87246185568275" lon="9.036689417606397"><ele>357.0</ele><time>2026-04-19T13:16:43.999Z</time></trkpt><trkpt lat="44.87250891890842" lon="9.036528618232822"><ele>357.0</ele><time>2026-04-19T13:16:44.999Z</time></trkpt><trkpt lat="44.87251670357267" lon="9.036376941949035"><ele>357.0</ele><time>2026-04-19T13:16:45.999Z</time></trkpt><trkpt lat="44.87247607353325" lon="9.036253902238306"><ele>358.0</ele><time>2026-04-19T13:16:46.999Z</time></trkpt><trkpt lat="44.87240465854934" lon="9.036164045298348"><ele>359.0</ele><time>2026-04-19T13:16:47.999Z</time></trkpt><trkpt lat="44.87231451797904" lon="9.036110151595159"><ele>360.0</ele><time>2026-04-19T13:16:48.999Z</time></trkpt><trkpt lat="44.87222448078071" lon="9.036073525589957"><ele>361.0</ele><time>2026-04-19T13:16:49.999Z</time></trkpt><trkpt lat="44.872154522024516" lon="9.03601653315016"><ele>362.0</ele><time>2026-04-19T13:16:50.999Z</time></trkpt><trkpt lat="44.872138366699645" lon="9.035929229101097"><ele>363.0</ele><time>2026-04-19T13:16:51.999Z</time></trkpt><trkpt lat="44.87216253128654" lon="9.035817064062888"><ele>364.5</ele><time>2026-04-19T13:16:52.999Z</time></trkpt><trkpt lat="44.872246045048" lon="9.035717694177817"><ele>366.0</ele><time>2026-04-19T13:16:53.999Z</time></trkpt><trkpt lat="44.87232168325258" lon="9.03558245887362"><ele>367.5</ele><time>2026-04-19T13:16:54.999Z</time></trkpt><trkpt lat="44.87241930419192" lon="9.035458184528999"><ele>369.0</ele><time>2026-04-19T13:16:55.999Z</time></trkpt><trkpt lat="44.87252732240939" lon="9.035304683630768"><ele>367.3333333333333</ele><time>2026-04-19T13:16:56.999Z</time></trkpt><trkpt lat="44.872632824464766" lon="9.035144262655576"><ele>365.66666666666663</ele><time>2026-04-19T13:16:57.999Z</time></trkpt><trkpt lat="44.872737530884" lon="9.03499735870631"><ele>364.0</ele><time>2026-04-19T13:16:58.999Z</time></trkpt><trkpt lat="44.87283166999706" lon="9.034836793198293"><ele>364.0</ele><time>2026-04-19T13:16:59.999Z</time></trkpt><trkpt lat="44.87292668116796" lon="9.03469031797157"><ele>364.0</ele><time>2026-04-19T13:17:00.999Z</time></trkpt><trkpt lat="44.87301654809007" lon="9.03455377613405"><ele>364.0</ele><time>2026-04-19T13:17:01.999Z</time></trkpt><trkpt lat="44.87311260606365" lon="9.034403395343151"><ele>364.0</ele><time>2026-04-19T13:17:02.999Z</time></trkpt><trkpt lat="44.87320851100209" lon="9.034237602728647"><ele>364.3333333333333</ele><time>2026-04-19T13:17:03.999Z</time></trkpt><trkpt lat="44.87329488932191" lon="9.03406172736997"><ele>364.6666666666667</ele><time>2026-04-19T13:17:04.999Z</time></trkpt><trkpt lat="44.87337371138123" lon="9.03387367066078"><ele>365.0</ele><time>2026-04-19T13:17:05.999Z</time></trkpt><trkpt lat="44.873449890680085" lon="9.033680642153572"><ele>365.0</ele><time>2026-04-19T13:17:06.999Z</time></trkpt><trkpt lat="44.87352588739851" lon="9.033494523346699"><ele>365.0</ele><time>2026-04-19T13:17:07.999Z</time></trkpt><trkpt lat="44.87359615734411" lon="9.033304898682678"><ele>365.0</ele><time>2026-04-19T13:17:08.999Z</time></trkpt><trkpt lat="44.87365434098981" lon="9.033120322834282"><ele>365.0</ele><time>2026-04-19T13:17:09.999Z</time></trkpt><trkpt lat="44.87370080050393" lon="9.032928864591328"><ele>366.25</ele><time>2026-04-19T13:17:10.999Z</time></trkpt><trkpt lat="44.87374687239068" lon="9.032738120496179"><ele>367.5</ele><time>2026-04-19T13:17:11.999Z</time></trkpt><trkpt lat="44.87379221083208" lon="9.032566795815635"><ele>368.75</ele><time>2026-04-19T13:17:12.999Z</time></trkpt><trkpt lat="44.873819866138035" lon="9.032419312406084"><ele>370.0</ele><time>2026-04-19T13:17:13.999Z</time></trkpt><trkpt lat="44.87381505331338" lon="9.032278845447182"><ele>370.6</ele><time>2026-04-19T13:17:14.999Z</time></trkpt><trkpt lat="44.87379192140046" lon="9.032119929883509"><ele>371.2</ele><time>2026-04-19T13:17:15.999Z</time></trkpt><trkpt lat="44.87376601219267" lon="9.031974417348493"><ele>371.79999999999995</ele><time>2026-04-19T13:17:16.999Z</time></trkpt><trkpt lat="44.87376829638135" lon="9.031840420938046"><ele>372.4</ele><time>2026-04-19T13:17:17.999Z</time></trkpt><trkpt lat="44.87378224149719" lon="9.03172824159832"><ele>373.0</ele><time>2026-04-19T13:17:18.998Z</time></trkpt><trkpt lat="44.87389078312678" lon="9.031644574700344"><ele>373.5</ele><time>2026-04-19T13:17:19.998Z</time></trkpt><trkpt lat="44.874005265193674" lon="9.031481600483405"><ele>374.0</ele><time>2026-04-19T13:17:20.998Z</time></trkpt><trkpt lat="44.874078558678136" lon="9.031306791156906"><ele>374.5</ele><time>2026-04-19T13:17:21.998Z</time></trkpt><trkpt lat="44.874142792835805" lon="9.03115264474479"><ele>375.0</ele><time>2026-04-19T13:17:22.998Z</time></trkpt><trkpt lat="44.874237671673" lon="9.031041495704063"><ele>374.25</ele><time>2026-04-19T13:17:23.998Z</time></trkpt><trkpt lat="44.874339165280794" lon="9.03094336824527"><ele>373.5</ele><time>2026-04-19T13:17:24.998Z</time></trkpt><trkpt lat="44.874470902075444" lon="9.030905717850564"><ele>372.75</ele><time>2026-04-19T13:17:25.998Z</time></trkpt><trkpt lat="44.87460927370358" lon="9.030880549508835"><ele>372.0</ele><time>2026-04-19T13:17:26.998Z</time></trkpt><trkpt lat="44.87475896675743" lon="9.030834850876461"><ele>372.0</ele><time>2026-04-19T13:17:27.998Z</time></trkpt><trkpt lat="44.87491544814812" lon="9.030825562061032"><ele>372.0</ele><time>2026-04-19T13:17:28.998Z</time></trkpt><trkpt lat="44.875046698852515" lon="9.03080668585518"><ele>372.0</ele><time>2026-04-19T13:17:29.998Z</time></trkpt><trkpt lat="44.87516693152139" lon="9.030764035851705"><ele>372.0</ele><time>2026-04-19T13:17:30.998Z</time></trkpt><trkpt lat="44.87530061807531" lon="9.030685141498877"><ele>373.3333333333333</ele><time>2026-04-19T13:17:31.998Z</time></trkpt><trkpt lat="44.875466576852524" lon="9.03061335213923"><ele>374.66666666666663</ele><time>2026-04-19T13:17:32.998Z</time></trkpt><trkpt lat="44.87562176038161" lon="9.03052469379959"><ele>376.0</ele><time>2026-04-19T13:17:33.998Z</time></trkpt><trkpt lat="44.87577463162748" lon="9.030387600752547"><ele>376.0</ele><time>2026-04-19T13:17:34.998Z</time></trkpt><trkpt lat="44.875913084859796" lon="9.030245439418582"><ele>376.0</ele><time>2026-04-19T13:17:35.998Z</time></trkpt><trkpt lat="44.876063970130616" lon="9.030148781137811"><ele>376.0</ele><time>2026-04-19T13:17:36.998Z</time></trkpt><trkpt lat="44.87621422404505" lon="9.030070778190858"><ele>375.66666666666663</ele><time>2026-04-19T13:17:37.998Z</time></trkpt><trkpt lat="44.876367379833525" lon="9.029997265541175"><ele>375.3333333333333</ele><time>2026-04-19T13:17:38.998Z</time></trkpt><trkpt lat="44.87651600562478" lon="9.029905787367221"><ele>375.0</ele><time>2026-04-19T13:17:39.998Z</time></trkpt><trkpt lat="44.876680223845895" lon="9.029828630940989"><ele>376.75</ele><time>2026-04-19T13:17:41Z</time></trkpt><trkpt lat="44.876832055201795" lon="9.029777881084621"><ele>378.5</ele><time>2026-04-19T13:17:42Z</time></trkpt><trkpt lat="44.876965793784485" lon="9.029735323594872"><ele>380.25</ele><time>2026-04-19T13:17:43Z</time></trkpt><trkpt lat="44.87709230615657" lon="9.029700748447842"><ele>382.0</ele><time>2026-04-19T13:17:44Z</time></trkpt><trkpt lat="44.877210673159986" lon="9.02964768607739"><ele>382.0</ele><time>2026-04-19T13:17:45Z</time></trkpt><trkpt lat="44.87732051726523" lon="9.029622268016396"><ele>382.0</ele><time>2026-04-19T13:17:46Z</time></trkpt><trkpt lat="44.87741518815496" lon="9.029579211137127"><ele>382.0</ele><time>2026-04-19T13:17:47Z</time></trkpt><trkpt lat="44.877501022233346" lon="9.029552791931742"><ele>382.0</ele><time>2026-04-19T13:17:48Z</time></trkpt><trkpt lat="44.87756348794629" lon="9.029466628281437"><ele>382.0</ele><time>2026-04-19T13:17:49Z</time></trkpt><trkpt lat="44.87762689179741" lon="9.029391266775985"><ele>380.6</ele><time>2026-04-19T13:17:50Z</time></trkpt><trkpt lat="44.87764065305663" lon="9.02927987082958"><ele>379.20000000000005</ele><time>2026-04-19T13:17:51Z</time></trkpt><trkpt lat="44.87769004523671" lon="9.029154962994962"><ele>377.8</ele><time>2026-04-19T13:17:53Z</time></trkpt><trkpt lat="44.87780265792458" lon="9.029175079034774"><ele>376.4</ele><time>2026-04-19T13:17:54Z</time></trkpt><trkpt lat="44.87791049202205" lon="9.029150466597326"><ele>375.0</ele><time>2026-04-19T13:17:55Z</time></trkpt><trkpt lat="44.87802855229005" lon="9.02911562276382"><ele>375.0</ele><time>2026-04-19T13:17:56Z</time></trkpt><trkpt lat="44.87815623703518" lon="9.029093364023417"><ele>375.0</ele><time>2026-04-19T13:17:57Z</time></trkpt><trkpt lat="44.87827823358057" lon="9.029062053899766"><ele>375.0</ele><time>2026-04-19T13:17:58Z</time></trkpt><trkpt lat="44.87840107558332" lon="9.029060898480166"><ele>375.0</ele><time>2026-04-19T13:17:59Z</time></trkpt><trkpt lat="44.87851933944675" lon="9.029055942506186"><ele>374.25</ele><time>2026-04-19T13:18:00Z</time></trkpt><trkpt lat="44.8786218386489" lon="9.029059474774265"><ele>373.5</ele><time>2026-04-19T13:18:01Z</time></trkpt><trkpt lat="44.87873086910606" lon="9.029068584928462"><ele>372.75</ele><time>2026-04-19T13:18:02Z</time></trkpt><trkpt lat="44.87884471279369" lon="9.02907117485577"><ele>372.0</ele><time>2026-04-19T13:18:03Z</time></trkpt><trkpt lat="44.878970353495774" lon="9.02909581554495"><ele>372.0</ele><time>2026-04-19T13:18:04Z</time></trkpt><trkpt lat="44.87910494703911" lon="9.029115943811354"><ele>372.0</ele><time>2026-04-19T13:18:05Z</time></trkpt><trkpt lat="44.879247232828966" lon="9.029135627009547"><ele>372.0</ele><time>2026-04-19T13:18:06Z</time></trkpt><trkpt lat="44.879388331694216" lon="9.029159980306181"><ele>372.0</ele><time>2026-04-19T13:18:07Z</time></trkpt><trkpt lat="44.87953499828182" lon="9.0291947679423"><ele>372.75</ele><time>2026-04-19T13:18:08Z</time></trkpt><trkpt lat="44.87967763307715" lon="9.029241825376388"><ele>373.5</ele><time>2026-04-19T13:18:09Z</time></trkpt><trkpt lat="44.879802036156974" lon="9.029341662425447"><ele>374.25</ele><time>2026-04-19T13:18:10Z</time></trkpt><trkpt lat="44.879934230945544" lon="9.029447252986968"><ele>375.0</ele><time>2026-04-19T13:18:11Z</time></trkpt><trkpt lat="44.880074027284195" lon="9.029539298949143"><ele>373.3333333333333</ele><time>2026-04-19T13:18:11.999Z</time></trkpt><trkpt lat="44.88020702186525" lon="9.02965414962581"><ele>371.66666666666663</ele><time>2026-04-19T13:18:12.999Z</time></trkpt><trkpt lat="44.88034554773443" lon="9.029761786217238"><ele>370.0</ele><time>2026-04-19T13:18:13.999Z</time></trkpt><trkpt lat="44.88048115168584" lon="9.029870807599284"><ele>372.66666666666663</ele><time>2026-04-19T13:18:14.999Z</time></trkpt><trkpt lat="44.88063966060147" lon="9.030004208558253"><ele>375.3333333333333</ele><time>2026-04-19T13:18:15.999Z</time></trkpt><trkpt lat="44.88079275744418" lon="9.030107985039553"><ele>378.0</ele><time>2026-04-19T13:18:16.999Z</time></trkpt><trkpt lat="44.88094061008639" lon="9.03016542136617"><ele>380.0</ele><time>2026-04-19T13:18:17.999Z</time></trkpt><trkpt lat="44.88108440981536" lon="9.030183953797708"><ele>382.0</ele><time>2026-04-19T13:18:18.999Z</time></trkpt><trkpt lat="44.88123469741144" lon="9.03017897261287"><ele>384.0</ele><time>2026-04-19T13:18:19.999Z</time></trkpt><trkpt lat="44.881389846423076" lon="9.030166315208827"><ele>384.0</ele><time>2026-04-19T13:18:20.999Z</time></trkpt><trkpt lat="44.88155128208261" lon="9.030145066965712"><ele>384.0</ele><time>2026-04-19T13:18:21.999Z</time></trkpt><trkpt lat="44.88171560582181" lon="9.03011056547419"><ele>384.0</ele><time>2026-04-19T13:18:22.999Z</time></trkpt><trkpt lat="44.881881033573116" lon="9.030057990226394"><ele>381.3333333333333</ele><time>2026-04-19T13:18:23.999Z</time></trkpt><trkpt lat="44.88204374224601" lon="9.029972065299114"><ele>378.66666666666663</ele><time>2026-04-19T13:18:24.999Z</time></trkpt><trkpt lat="44.882203224908" lon="9.029858423042597"><ele>376.0</ele><time>2026-04-19T13:18:25.999Z</time></trkpt><trkpt lat="44.88234584965949" lon="9.029722763246268"><ele>376.0</ele><time>2026-04-19T13:18:26.999Z</time></trkpt><trkpt lat="44.88248197309646" lon="9.029571668378852"><ele>376.0</ele><time>2026-04-19T13:18:27.999Z</time></trkpt><trkpt lat="44.88262414114597" lon="9.02947320213426"><ele>376.0</ele><time>2026-04-19T13:18:28.999Z</time></trkpt><trkpt lat="44.882764571076905" lon="9.029395168515288"><ele>377.75</ele><time>2026-04-19T13:18:29.999Z</time></trkpt><trkpt lat="44.882906803207504" lon="9.029332994179569"><ele>379.5</ele><time>2026-04-19T13:18:30.999Z</time></trkpt><trkpt lat="44.88303864203944" lon="9.029263860990737"><ele>381.25</ele><time>2026-04-19T13:18:31.999Z</time></trkpt><trkpt lat="44.883173419734334" lon="9.029219985346192"><ele>383.0</ele><time>2026-04-19T13:18:32.999Z</time></trkpt><trkpt lat="44.88330418614413" lon="9.029191434314685"><ele>380.0</ele><time>2026-04-19T13:18:33.999Z</time></trkpt><trkpt lat="44.88342950056508" lon="9.029131760973055"><ele>377.0</ele><time>2026-04-19T13:18:34.999Z</time></trkpt><trkpt lat="44.8835580552423" lon="9.029152193368441"><ele>374.0</ele><time>2026-04-19T13:18:35.999Z</time></trkpt><trkpt lat="44.883697386396" lon="9.029181815795008"><ele>371.0</ele><time>2026-04-19T13:18:36.999Z</time></trkpt><trkpt lat="44.8838390343714" lon="9.02922710563372"><ele>371.0</ele><time>2026-04-19T13:18:37.999Z</time></trkpt><trkpt lat="44.88398822777877" lon="9.029266514406874"><ele>371.0</ele><time>2026-04-19T13:18:38.999Z</time></trkpt><trkpt lat="44.884134296911405" lon="9.029324240248558"><ele>371.0</ele><time>2026-04-19T13:18:39.999Z</time></trkpt><trkpt lat="44.884285681856035" lon="9.029351204937793"><ele>369.6666666666667</ele><time>2026-04-19T13:18:40.999Z</time></trkpt><trkpt lat="44.8844464401402" lon="9.029329616000991"><ele>368.3333333333333</ele><time>2026-04-19T13:18:41.999Z</time></trkpt><trkpt lat="44.88460538894161" lon="9.029260415712734"><ele>367.0</ele><time>2026-04-19T13:18:42.999Z</time></trkpt><trkpt lat="44.88475786351158" lon="9.029173370617617"><ele>365.3333333333333</ele><time>2026-04-19T13:18:43.999Z</time></trkpt><trkpt lat="44.884914376592725" lon="9.02908411933093"><ele>363.6666666666667</ele><time>2026-04-19T13:18:44.999Z</time></trkpt><trkpt lat="44.88506833236508" lon="9.029000729896495"><ele>362.0</ele><time>2026-04-19T13:18:45.999Z</time></trkpt><trkpt lat="44.88521701862878" lon="9.028921968935402"><ele>362.0</ele><time>2026-04-19T13:18:46.999Z</time></trkpt><trkpt lat="44.88536525320097" lon="9.0288496743482"><ele>362.0</ele><time>2026-04-19T13:18:47.999Z</time></trkpt><trkpt lat="44.88550333338906" lon="9.028776603034052"><ele>362.0</ele><time>2026-04-19T13:18:48.999Z</time></trkpt><trkpt lat="44.88562978136848" lon="9.028698650938267"><ele>362.0</ele><time>2026-04-19T13:18:49.999Z</time></trkpt><trkpt lat="44.885754227973294" lon="9.028622962432088"><ele>362.0</ele><time>2026-04-19T13:18:50.999Z</time></trkpt><trkpt lat="44.885866413062466" lon="9.028530999579296"><ele>362.0</ele><time>2026-04-19T13:18:51.999Z</time></trkpt><trkpt lat="44.88597129981432" lon="9.028443794744662"><ele>362.0</ele><time>2026-04-19T13:18:52.999Z</time></trkpt><trkpt lat="44.88606983673119" lon="9.028361192906036"><ele>362.0</ele><time>2026-04-19T13:18:53.999Z</time></trkpt><trkpt lat="44.886163150427905" lon="9.028308974935404"><ele>360.6666666666667</ele><time>2026-04-19T13:18:54.999Z</time></trkpt><trkpt lat="44.88624242202831" lon="9.028216929116464"><ele>359.33333333333337</ele><time>2026-04-19T13:18:55.999Z</time></trkpt><trkpt lat="44.886325930377346" lon="9.028148709865873"><ele>358.0</ele><time>2026-04-19T13:18:56.999Z</time></trkpt><trkpt lat="44.886404180270304" lon="9.028108827805791"><ele>356.6666666666667</ele><time>2026-04-19T13:18:57.999Z</time></trkpt><trkpt lat="44.886479234653336" lon="9.028046224854602"><ele>355.3333333333333</ele><time>2026-04-19T13:18:59.999Z</time></trkpt><trkpt lat="44.88654669822121" lon="9.028017174863255"><ele>354.0</ele><time>2026-04-19T13:19:09.999Z</time></trkpt><trkpt lat="44.88659006721268" lon="9.028165496172063"><ele>354.0</ele><time>2026-04-19T13:19:11.999Z</time></trkpt><trkpt lat="44.88666570811599" lon="9.028309016945762"><ele>354.0</ele><time>2026-04-19T13:19:13.999Z</time></trkpt><trkpt lat="44.886692806301625" lon="9.02843047362905"><ele>354.0</ele><time>2026-04-19T13:19:14.999Z</time></trkpt><trkpt lat="44.88675569862054" lon="9.028546905277178"><ele>354.0</ele><time>2026-04-19T13:19:15.999Z</time></trkpt><trkpt lat="44.886805300963395" lon="9.02867667618573"><ele>354.0</ele><time>2026-04-19T13:19:16.999Z</time></trkpt><trkpt lat="44.88684981919533" lon="9.028793598218956"><ele>355.0</ele><time>2026-04-19T13:19:17.999Z</time></trkpt><trkpt lat="44.88689016119202" lon="9.02889240501972"><ele>356.0</ele><time>2026-04-19T13:19:18.999Z</time></trkpt><trkpt lat="44.88692560763752" lon="9.028981498305003"><ele>357.0</ele><time>2026-04-19T13:19:19.999Z</time></trkpt><trkpt lat="44.88697500918447" lon="9.029037853959316"><ele>358.0</ele><time>2026-04-19T13:19:20.999Z</time></trkpt><trkpt lat="44.88702810176907" lon="9.029091122312595"><ele>359.0</ele><time>2026-04-19T13:19:21.998Z</time></trkpt><trkpt lat="44.88710081397783" lon="9.029132219103106"><ele>360.0</ele><time>2026-04-19T13:19:22.998Z</time></trkpt><trkpt lat="44.88719781298373" lon="9.02915275567957"><ele>360.0</ele><time>2026-04-19T13:19:23.998Z</time></trkpt><trkpt lat="44.88731453397456" lon="9.029170534616483"><ele>360.0</ele><time>2026-04-19T13:19:24.998Z</time></trkpt><trkpt lat="44.88742548073382" lon="9.029210457244547"><ele>360.0</ele><time>2026-04-19T13:19:25.998Z</time></trkpt><trkpt lat="44.88752196459405" lon="9.029233372646344"><ele>360.0</ele><time>2026-04-19T13:19:26.998Z</time></trkpt><trkpt lat="44.88761649524079" lon="9.029265285956939"><ele>360.0</ele><time>2026-04-19T13:19:27.998Z</time></trkpt><trkpt lat="44.88771626628833" lon="9.02932392881442"><ele>359.4</ele><time>2026-04-19T13:19:28.998Z</time></trkpt><trkpt lat="44.88781609726797" lon="9.029398927852675"><ele>358.8</ele><time>2026-04-19T13:19:29.998Z</time></trkpt><trkpt lat="44.8879192914006" lon="9.029475608504285"><ele>358.20000000000005</ele><time>2026-04-19T13:19:30.998Z</time></trkpt><trkpt lat="44.88802271050752" lon="9.029530627147057"><ele>357.6</ele><time>2026-04-19T13:19:31.998Z</time></trkpt><trkpt lat="44.88811304809096" lon="9.029592865490114"><ele>357.0</ele><time>2026-04-19T13:19:32.998Z</time></trkpt><trkpt lat="44.88819918977643" lon="9.02965776348341"><ele>357.0</ele><time>2026-04-19T13:19:33.998Z</time></trkpt><trkpt lat="44.88828086450749" lon="9.02971091553303"><ele>357.0</ele><time>2026-04-19T13:19:34.998Z</time></trkpt><trkpt lat="44.88836969067159" lon="9.02974736491708"><ele>357.0</ele><time>2026-04-19T13:19:35.998Z</time></trkpt><trkpt lat="44.888452100075384" lon="9.02977662525058"><ele>357.0</ele><time>2026-04-19T13:19:36.998Z</time></trkpt><trkpt lat="44.88853397909471" lon="9.029784032079528"><ele>357.0</ele><time>2026-04-19T13:19:37.998Z</time></trkpt><trkpt lat="44.888628597938805" lon="9.029773716874802"><ele>357.0</ele><time>2026-04-19T13:19:38.998Z</time></trkpt><trkpt lat="44.888720522648185" lon="9.029769027821992"><ele>355.20000000000005</ele><time>2026-04-19T13:19:39.998Z</time></trkpt><trkpt lat="44.888828393217196" lon="9.029793078223712"><ele>353.4</ele><time>2026-04-19T13:19:40.998Z</time></trkpt><trkpt lat="44.88893438380194" lon="9.029801589190816"><ele>351.6</ele><time>2026-04-19T13:19:41.998Z</time></trkpt><trkpt lat="44.88903705436849" lon="9.029787495882903"><ele>349.79999999999995</ele><time>2026-04-19T13:19:42.998Z</time></trkpt><trkpt lat="44.889159137395545" lon="9.029804569680392"><ele>348.0</ele><time>2026-04-19T13:19:43.998Z</time></trkpt><trkpt lat="44.88927467915042" lon="9.029811312625966"><ele>346.25</ele><time>2026-04-19T13:19:44.998Z</time></trkpt><trkpt lat="44.88940112991221" lon="9.029815465306845"><ele>344.5</ele><time>2026-04-19T13:19:45.998Z</time></trkpt><trkpt lat="44.88953378822933" lon="9.029821415665827"><ele>342.75</ele><time>2026-04-19T13:19:47Z</time></trkpt><trkpt lat="44.88965703511529" lon="9.029824232055237"><ele>341.0</ele><time>2026-04-19T13:19:48Z</time></trkpt><trkpt lat="44.889778443978386" lon="9.029792763061648"><ele>341.0</ele><time>2026-04-19T13:19:49Z</time></trkpt><trkpt lat="44.88989956551522" lon="9.029779072356915"><ele>341.0</ele><time>2026-04-19T13:19:50Z</time></trkpt><trkpt lat="44.89002965792164" lon="9.029757422962158"><ele>341.0</ele><time>2026-04-19T13:19:51Z</time></trkpt><trkpt lat="44.8901538811725" lon="9.029731795481347"><ele>341.0</ele><time>2026-04-19T13:19:52Z</time></trkpt><trkpt lat="44.89027422524522" lon="9.02968691388864"><ele>340.75</ele><time>2026-04-19T13:19:53.001Z</time></trkpt><trkpt lat="44.8903859483925" lon="9.029652310072725"><ele>340.5</ele><time>2026-04-19T13:19:54.001Z</time></trkpt><trkpt lat="44.89050989319989" lon="9.029633031594015"><ele>340.25</ele><time>2026-04-19T13:19:55.001Z</time></trkpt><trkpt lat="44.89062291290276" lon="9.02960319439508"><ele>340.0</ele><time>2026-04-19T13:19:56.001Z</time></trkpt><trkpt lat="44.89074043107048" lon="9.029562977650718"><ele>340.0</ele><time>2026-04-19T13:19:57.001Z</time></trkpt><trkpt lat="44.89084194906407" lon="9.029516498186384"><ele>340.0</ele><time>2026-04-19T13:19:58.001Z</time></trkpt><trkpt lat="44.89093382102024" lon="9.029476161808708"><ele>340.0</ele><time>2026-04-19T13:19:59.001Z</time></trkpt><trkpt lat="44.891026854390844" lon="9.029446625991508"><ele>340.0</ele><time>2026-04-19T13:20:00.001Z</time></trkpt><trkpt lat="44.89112080826434" lon="9.029404373936885"><ele>340.0</ele><time>2026-04-19T13:20:01.001Z</time></trkpt><trkpt lat="44.89122307337043" lon="9.029321675208893"><ele>339.0</ele><time>2026-04-19T13:20:02.001Z</time></trkpt><trkpt lat="44.89131183368429" lon="9.029191949866542"><ele>338.0</ele><time>2026-04-19T13:20:03.001Z</time></trkpt><trkpt lat="44.89139680884286" lon="9.029107231365176"><ele>337.0</ele><time>2026-04-19T13:20:04.001Z</time></trkpt><trkpt lat="44.89147495917873" lon="9.029047134193146"><ele>336.0</ele><time>2026-04-19T13:20:05.001Z</time></trkpt><trkpt lat="44.89155543902432" lon="9.028978866536239"><ele>335.0</ele><time>2026-04-19T13:20:06.001Z</time></trkpt><trkpt lat="44.89161812157909" lon="9.028917862291935"><ele>334.0</ele><time>2026-04-19T13:20:07.001Z</time></trkpt><trkpt lat="44.89168383929765" lon="9.028852819904252"><ele>333.0</ele><time>2026-04-19T13:20:08.001Z</time></trkpt><trkpt lat="44.89175569217797" lon="9.028787483097258"><ele>332.0</ele><time>2026-04-19T13:20:09.001Z</time></trkpt><trkpt lat="44.89184016375792" lon="9.028712251335236"><ele>331.0</ele><time>2026-04-19T13:20:10.001Z</time></trkpt><trkpt lat="44.89191902785997" lon="9.02864639236765"><ele>330.0</ele><time>2026-04-19T13:20:11.001Z</time></trkpt><trkpt lat="44.89198763151862" lon="9.028586756353423"><ele>329.0</ele><time>2026-04-19T13:20:12.001Z</time></trkpt><trkpt lat="44.892065188431225" lon="9.028514905399497"><ele>327.6</ele><time>2026-04-19T13:20:13.001Z</time></trkpt><trkpt lat="44.89214305983941" lon="9.02843904937369"><ele>326.2</ele><time>2026-04-19T13:20:14.001Z</time></trkpt><trkpt lat="44.89222905353982" lon="9.028358238729409"><ele>324.8</ele><time>2026-04-19T13:20:15.001Z</time></trkpt><trkpt lat="44.892292991799685" lon="9.028292324207479"><ele>323.40000000000003</ele><time>2026-04-19T13:20:16Z</time></trkpt><trkpt lat="44.89236878483205" lon="9.028212844027946"><ele>322.0</ele><time>2026-04-19T13:20:17Z</time></trkpt><trkpt lat="44.892439569221864" lon="9.028133827735468"><ele>321.6</ele><time>2026-04-19T13:20:18Z</time></trkpt><trkpt lat="44.892528810826015" lon="9.02803690629453"><ele>321.20000000000005</ele><time>2026-04-19T13:20:19Z</time></trkpt><trkpt lat="44.89262469785834" lon="9.027946728349985"><ele>320.8</ele><time>2026-04-19T13:20:20Z</time></trkpt><trkpt lat="44.89272304118738" lon="9.027857181379314"><ele>320.4</ele><time>2026-04-19T13:20:21Z</time></trkpt><trkpt lat="44.89280119617464" lon="9.027796509149718"><ele>320.0</ele><time>2026-04-19T13:20:22Z</time></trkpt><trkpt lat="44.892887167929736" lon="9.027717118303437"><ele>318.2</ele><time>2026-04-19T13:20:23Z</time></trkpt><trkpt lat="44.89295801036801" lon="9.027631238577056"><ele>316.4</ele><time>2026-04-19T13:20:24Z</time></trkpt><trkpt lat="44.893027287905674" lon="9.02752976295224"><ele>314.6</ele><time>2026-04-19T13:20:25Z</time></trkpt><trkpt lat="44.89309863833199" lon="9.027404695134633"><ele>312.8</ele><time>2026-04-19T13:20:26Z</time></trkpt><trkpt lat="44.89318656254144" lon="9.02725928770644"><ele>311.0</ele><time>2026-04-19T13:20:27Z</time></trkpt><trkpt lat="44.893290467083816" lon="9.027130510837146"><ele>310.6666666666667</ele><time>2026-04-19T13:20:28Z</time></trkpt><trkpt lat="44.89341094320465" lon="9.026995547334511"><ele>310.3333333333333</ele><time>2026-04-19T13:20:29Z</time></trkpt><trkpt lat="44.893529141732266" lon="9.026883751849512"><ele>310.0</ele><time>2026-04-19T13:20:30Z</time></trkpt><trkpt lat="44.89365847373773" lon="9.026750475997625"><ele>309.5</ele><time>2026-04-19T13:20:31Z</time></trkpt><trkpt lat="44.893776789144404" lon="9.026620931762814"><ele>309.0</ele><time>2026-04-19T13:20:32Z</time></trkpt><trkpt lat="44.89388172800494" lon="9.026488511483699"><ele>308.5</ele><time>2026-04-19T13:20:33Z</time></trkpt><trkpt lat="44.8939721791269" lon="9.026364904737543"><ele>308.0</ele><time>2026-04-19T13:20:34Z</time></trkpt><trkpt lat="44.89406965902937" lon="9.02624227633138"><ele>308.0</ele><time>2026-04-19T13:20:35Z</time></trkpt><trkpt lat="44.89415618323282" lon="9.0261361592635"><ele>308.0</ele><time>2026-04-19T13:20:36Z</time></trkpt><trkpt lat="44.894236115000446" lon="9.026039568827487"><ele>308.0</ele><time>2026-04-19T13:20:37Z</time></trkpt><trkpt lat="44.894325616784954" lon="9.025935199772261"><ele>308.0</ele><time>2026-04-19T13:20:38Z</time></trkpt><trkpt lat="44.89440101361681" lon="9.025817965809289"><ele>308.0</ele><time>2026-04-19T13:20:39Z</time></trkpt><trkpt lat="44.89446574741313" lon="9.025698922112108"><ele>307.6</ele><time>2026-04-19T13:20:40Z</time></trkpt><trkpt lat="44.89453161793207" lon="9.025583385183333"><ele>307.20000000000005</ele><time>2026-04-19T13:20:41Z</time></trkpt><trkpt lat="44.8945879983801" lon="9.025483894042049"><ele>306.8</ele><time>2026-04-19T13:20:42Z</time></trkpt><trkpt lat="44.894645571418266" lon="9.025373491508214"><ele>306.40000000000003</ele><time>2026-04-19T13:20:43Z</time></trkpt><trkpt lat="44.894722553259875" lon="9.025257673356386"><ele>306.0</ele><time>2026-04-19T13:20:44Z</time></trkpt><trkpt lat="44.894801070573045" lon="9.025165946291882"><ele>306.0</ele><time>2026-04-19T13:20:45Z</time></trkpt><trkpt lat="44.894891186701614" lon="9.025047883923833"><ele>306.0</ele><time>2026-04-19T13:20:46Z</time></trkpt><trkpt lat="44.89497317849747" lon="9.024924957523963"><ele>306.0</ele><time>2026-04-19T13:20:47Z</time></trkpt><trkpt lat="44.89504599280686" lon="9.024805406689437"><ele>306.0</ele><time>2026-04-19T13:20:48Z</time></trkpt><trkpt lat="44.895133911361114" lon="9.024663679869787"><ele>306.5</ele><time>2026-04-19T13:20:49Z</time></trkpt><trkpt lat="44.89525081590831" lon="9.024503044838095"><ele>307.0</ele><time>2026-04-19T13:20:50Z</time></trkpt><trkpt lat="44.8953575005445" lon="9.024353227567534"><ele>307.5</ele><time>2026-04-19T13:20:51Z</time></trkpt><trkpt lat="44.895435310859845" lon="9.024226489779435"><ele>308.0</ele><time>2026-04-19T13:20:52Z</time></trkpt><trkpt lat="44.895514204639674" lon="9.024114764895888"><ele>308.0</ele><time>2026-04-19T13:20:53Z</time></trkpt><trkpt lat="44.89559402397224" lon="9.024015851854639"><ele>308.0</ele><time>2026-04-19T13:20:54Z</time></trkpt><trkpt lat="44.89570863851248" lon="9.02388926043315"><ele>308.0</ele><time>2026-04-19T13:20:55Z</time></trkpt><trkpt lat="44.895818615858055" lon="9.023773914128796"><ele>308.0</ele><time>2026-04-19T13:20:56Z</time></trkpt><trkpt lat="44.895910394345385" lon="9.023681640454878"><ele>307.75</ele><time>2026-04-19T13:20:57Z</time></trkpt><trkpt lat="44.89600443046939" lon="9.023596418021778"><ele>307.5</ele><time>2026-04-19T13:20:58Z</time></trkpt><trkpt lat="44.89609899142415" lon="9.023523461303927"><ele>307.25</ele><time>2026-04-19T13:20:59Z</time></trkpt><trkpt lat="44.89618614877208" lon="9.023446379889112"><ele>307.0</ele><time>2026-04-19T13:21:00Z</time></trkpt><trkpt lat="44.89629767722904" lon="9.023348454859303"><ele>307.6</ele><time>2026-04-19T13:21:01Z</time></trkpt><trkpt lat="44.89640286677736" lon="9.023250202802489"><ele>308.2</ele><time>2026-04-19T13:21:02Z</time></trkpt><trkpt lat="44.89649540044862" lon="9.02316864139701"><ele>308.8</ele><time>2026-04-19T13:21:03Z</time></trkpt><trkpt lat="44.896583649700545" lon="9.02309771661467"><ele>309.4</ele><time>2026-04-19T13:21:04Z</time></trkpt><trkpt lat="44.89666773474834" lon="9.02303923853258"><ele>310.0</ele><time>2026-04-19T13:21:05Z</time></trkpt><trkpt lat="44.89675172456092" lon="9.022960274613114"><ele>308.2</ele><time>2026-04-19T13:21:06Z</time></trkpt><trkpt lat="44.89682466227046" lon="9.02289870475125"><ele>306.4</ele><time>2026-04-19T13:21:07Z</time></trkpt><trkpt lat="44.89691716978277" lon="9.022813233373775"><ele>304.6</ele><time>2026-04-19T13:21:08Z</time></trkpt><trkpt lat="44.89700695602364" lon="9.022746394293808"><ele>302.8</ele><time>2026-04-19T13:21:09Z</time></trkpt><trkpt lat="44.89708350898073" lon="9.022685179612404"><ele>301.0</ele><time>2026-04-19T13:21:10Z</time></trkpt><trkpt lat="44.89716952136873" lon="9.022621817316399"><ele>301.0</ele><time>2026-04-19T13:21:11Z</time></trkpt><trkpt lat="44.89724966985637" lon="9.022550465223304"><ele>301.0</ele><time>2026-04-19T13:21:12Z</time></trkpt><trkpt lat="44.8973209646041" lon="9.022463679112636"><ele>301.0</ele><time>2026-04-19T13:21:13Z</time></trkpt><trkpt lat="44.89738921235207" lon="9.022368697278397"><ele>301.0</ele><time>2026-04-19T13:21:14Z</time></trkpt><trkpt lat="44.89743592293101" lon="9.022305057103821"><ele>301.0</ele><time>2026-04-19T13:21:15Z</time></trkpt><trkpt lat="44.897494733627795" lon="9.022211008458243"><ele>301.0</ele><time>2026-04-19T13:21:17Z</time></trkpt><trkpt lat="44.89751292132592" lon="9.022108211634684"><ele>301.16666666666663</ele><time>2026-04-19T13:21:22Z</time></trkpt><trkpt lat="44.897470437304754" lon="9.022004351797085"><ele>301.3333333333333</ele><time>2026-04-19T13:21:25Z</time></trkpt><trkpt lat="44.89737826723552" lon="9.021930186790684"><ele>301.5</ele><time>2026-04-19T13:21:26.999Z</time></trkpt><trkpt lat="44.89736410234803" lon="9.021841488492761"><ele>301.6666666666667</ele><time>2026-04-19T13:21:27.999Z</time></trkpt><trkpt lat="44.89734508057677" lon="9.021723372807065"><ele>301.83333333333337</ele><time>2026-04-19T13:21:28.999Z</time></trkpt><trkpt lat="44.897314120921386" lon="9.021618963024197"><ele>302.0</ele><time>2026-04-19T13:21:29.999Z</time></trkpt><trkpt lat="44.897271135301835" lon="9.02152527965537"><ele>302.0</ele><time>2026-04-19T13:21:30.999Z</time></trkpt><trkpt lat="44.89728736392957" lon="9.021423854214047"><ele>302.0</ele><time>2026-04-19T13:21:31.999Z</time></trkpt><trkpt lat="44.897334572576554" lon="9.021359440275143"><ele>302.0</ele><time>2026-04-19T13:21:32.999Z</time></trkpt><trkpt lat="44.897397628026916" lon="9.021304770665353"><ele>302.0</ele><time>2026-04-19T13:21:33.999Z</time></trkpt><trkpt lat="44.897438459236476" lon="9.021207208951179"><ele>302.0</ele><time>2026-04-19T13:21:34.999Z</time></trkpt><trkpt lat="44.897485638650465" lon="9.021084369237126"><ele>302.0</ele><time>2026-04-19T13:21:36.999Z</time></trkpt><trkpt lat="44.89761699927288" lon="9.021105213601691"><ele>301.0</ele><time>2026-04-19T13:21:38.999Z</time></trkpt><trkpt lat="44.89769571356008" lon="9.021083495031371"><ele>300.0</ele><time>2026-04-19T13:21:39.999Z</time></trkpt><trkpt lat="44.89778957154625" lon="9.020982779030511"><ele>299.0</ele><time>2026-04-19T13:21:40.999Z</time></trkpt><trkpt lat="44.89785119566969" lon="9.020849025631371"><ele>298.0</ele><time>2026-04-19T13:21:41.999Z</time></trkpt><trkpt lat="44.89796621607393" lon="9.020594062794217"><ele>298.0</ele><time>2026-04-19T13:21:42.999Z</time></trkpt><trkpt lat="44.89806288115944" lon="9.020379710264082"><ele>298.0</ele><time>2026-04-19T13:21:43.999Z</time></trkpt><trkpt lat="44.89818252657205" lon="9.020116580051626"><ele>298.0</ele><time>2026-04-19T13:21:44.999Z</time></trkpt><trkpt lat="44.89829844986098" lon="9.019861635709425"><ele>297.3333333333333</ele><time>2026-04-19T13:21:45.999Z</time></trkpt><trkpt lat="44.89840438351971" lon="9.019623745928989"><ele>296.6666666666667</ele><time>2026-04-19T13:21:46.999Z</time></trkpt><trkpt lat="44.898501484290115" lon="9.019403942766626"><ele>296.0</ele><time>2026-04-19T13:21:47.999Z</time></trkpt><trkpt lat="44.898594519452246" lon="9.019193389516346"><ele>294.6666666666667</ele><time>2026-04-19T13:21:48.999Z</time></trkpt><trkpt lat="44.89868404157612" lon="9.018999124894874"><ele>293.3333333333333</ele><time>2026-04-19T13:21:49.999Z</time></trkpt><trkpt lat="44.898775084886836" lon="9.018802204239073"><ele>292.0</ele><time>2026-04-19T13:21:50.999Z</time></trkpt><trkpt lat="44.89885886363901" lon="9.018620037197909"><ele>292.0</ele><time>2026-04-19T13:21:52Z</time></trkpt><trkpt lat="44.898947377652284" lon="9.018449220770478"><ele>292.0</ele><time>2026-04-19T13:21:53.001Z</time></trkpt><trkpt lat="44.89904978316456" lon="9.018303430416564"><ele>292.0</ele><time>2026-04-19T13:21:54Z</time></trkpt><trkpt lat="44.89917420745007" lon="9.018181125996598"><ele>292.0</ele><time>2026-04-19T13:21:55Z</time></trkpt><trkpt lat="44.89929776595501" lon="9.0180806087503"><ele>290.5</ele><time>2026-04-19T13:21:56Z</time></trkpt><trkpt lat="44.899426659947466" lon="9.017992487698779"><ele>289.0</ele><time>2026-04-19T13:21:57Z</time></trkpt><trkpt lat="44.89954664602044" lon="9.01791264402878"><ele>287.5</ele><time>2026-04-19T13:21:58Z</time></trkpt><trkpt lat="44.8996671614847" lon="9.01783583501433"><ele>286.0</ele><time>2026-04-19T13:21:59Z</time></trkpt><trkpt lat="44.89977941214326" lon="9.017737004861228"><ele>286.0</ele><time>2026-04-19T13:22:00Z</time></trkpt><trkpt lat="44.89988626032282" lon="9.017651962264454"><ele>286.0</ele><time>2026-04-19T13:22:01Z</time></trkpt><trkpt lat="44.89999100441509" lon="9.017577126137734"><ele>286.0</ele><time>2026-04-19T13:22:02Z</time></trkpt><trkpt lat="44.90006518858614" lon="9.017448887551453"><ele>286.0</ele><time>2026-04-19T13:22:03Z</time></trkpt><trkpt lat="44.900142573123304" lon="9.017353958633626"><ele>285.0</ele><time>2026-04-19T13:22:04Z</time></trkpt><trkpt lat="44.9001981170287" lon="9.017258338024767"><ele>284.0</ele><time>2026-04-19T13:22:05Z</time></trkpt><trkpt lat="44.90027376379552" lon="9.01729327482966"><ele>283.0</ele><time>2026-04-19T13:22:09Z</time></trkpt><trkpt lat="44.90023842459424" lon="9.017441165494818"><ele>282.0</ele><time>2026-04-19T13:22:11Z</time></trkpt><trkpt lat="44.900234202200636" lon="9.017601899599542"><ele>281.0</ele><time>2026-04-19T13:22:12Z</time></trkpt><trkpt lat="44.90021167507177" lon="9.017794508544796"><ele>281.0</ele><time>2026-04-19T13:22:13Z</time></trkpt><trkpt lat="44.900201427009364" lon="9.017952166964221"><ele>281.0</ele><time>2026-04-19T13:22:14Z</time></trkpt><trkpt lat="44.90019383537625" lon="9.018070119439635"><ele>281.0</ele><time>2026-04-19T13:22:15Z</time></trkpt><trkpt lat="44.90019086015983" lon="9.018168980635563"><ele>281.0</ele><time>2026-04-19T13:22:16Z</time></trkpt><trkpt lat="44.90023075578399" lon="9.018344097109726"><ele>281.0</ele><time>2026-04-19T13:22:18Z</time></trkpt><trkpt lat="44.900276276868844" lon="9.018437541227122"><ele>281.33333333333337</ele><time>2026-04-19T13:22:19Z</time></trkpt><trkpt lat="44.90034595591409" lon="9.01854226784032"><ele>281.6666666666667</ele><time>2026-04-19T13:22:20Z</time></trkpt><trkpt lat="44.900410537921324" lon="9.018641532256996"><ele>282.0</ele><time>2026-04-19T13:22:21Z</time></trkpt><trkpt lat="44.90045561940253" lon="9.018710211540109"><ele>282.3333333333333</ele><time>2026-04-19T13:22:22Z</time></trkpt><trkpt lat="44.90051356094894" lon="9.01879393251082"><ele>282.66666666666663</ele><time>2026-04-19T13:22:24Z</time></trkpt><trkpt lat="44.9005794568033" lon="9.018784820219008"><ele>283.0</ele><time>2026-04-19T13:22:25Z</time></trkpt><trkpt lat="44.90063734807056" lon="9.018711244721649"><ele>283.0</ele><time>2026-04-19T13:22:26Z</time></trkpt><trkpt lat="44.90072334917613" lon="9.01862698446356"><ele>283.0</ele><time>2026-04-19T13:22:27Z</time></trkpt><trkpt lat="44.90083305280599" lon="9.018529469001088"><ele>283.0</ele><time>2026-04-19T13:22:28Z</time></trkpt><trkpt lat="44.90095311825644" lon="9.018441184577277"><ele>283.0</ele><time>2026-04-19T13:22:29Z</time></trkpt><trkpt lat="44.90105562254516" lon="9.018375878298773"><ele>281.75</ele><time>2026-04-19T13:22:30Z</time></trkpt><trkpt lat="44.90117198535294" lon="9.018315799604773"><ele>280.5</ele><time>2026-04-19T13:22:31Z</time></trkpt><trkpt lat="44.9012953480696" lon="9.018280945323985"><ele>279.25</ele><time>2026-04-19T13:22:32Z</time></trkpt><trkpt lat="44.90139344793055" lon="9.018219547552118"><ele>278.0</ele><time>2026-04-19T13:22:33Z</time></trkpt><trkpt lat="44.90149083205255" lon="9.018156805797236"><ele>278.0</ele><time>2026-04-19T13:22:34Z</time></trkpt><trkpt lat="44.90160599561713" lon="9.018081348451666"><ele>278.0</ele><time>2026-04-19T13:22:35Z</time></trkpt><trkpt lat="44.901725039024626" lon="9.017998181052826"><ele>278.0</ele><time>2026-04-19T13:22:36Z</time></trkpt><trkpt lat="44.90183674141088" lon="9.017913993720125"><ele>278.0</ele><time>2026-04-19T13:22:37Z</time></trkpt><trkpt lat="44.901938929609656" lon="9.017834173279724"><ele>277.25</ele><time>2026-04-19T13:22:38Z</time></trkpt><trkpt lat="44.90203036078007" lon="9.017760039536064"><ele>276.5</ele><time>2026-04-19T13:22:39Z</time></trkpt><trkpt lat="44.90212661629389" lon="9.017674764635577"><ele>275.75</ele><time>2026-04-19T13:22:40Z</time></trkpt><trkpt lat="44.90221887183614" lon="9.017568889663648"><ele>275.0</ele><time>2026-04-19T13:22:41Z</time></trkpt><trkpt lat="44.902310091644715" lon="9.017460104095042"><ele>274.75</ele><time>2026-04-19T13:22:42Z</time></trkpt><trkpt lat="44.902399817597406" lon="9.017351738932389"><ele>274.5</ele><time>2026-04-19T13:22:43Z</time></trkpt><trkpt lat="44.902481963288075" lon="9.017244857712873"><ele>274.25</ele><time>2026-04-19T13:22:44Z</time></trkpt><trkpt lat="44.90256988263648" lon="9.017153330427115"><ele>274.0</ele><time>2026-04-19T13:22:45Z</time></trkpt><trkpt lat="44.90265143650316" lon="9.017025434627254"><ele>273.75</ele><time>2026-04-19T13:22:46Z</time></trkpt><trkpt lat="44.90273445619154" lon="9.016878866048364"><ele>273.5</ele><time>2026-04-19T13:22:47Z</time></trkpt><trkpt lat="44.90281858158471" lon="9.016737809856192"><ele>273.25</ele><time>2026-04-19T13:22:48Z</time></trkpt><trkpt lat="44.90290337535969" lon="9.016598404300895"><ele>273.0</ele><time>2026-04-19T13:22:49Z</time></trkpt><trkpt lat="44.90298968799168" lon="9.0164575368233"><ele>272.75</ele><time>2026-04-19T13:22:50Z</time></trkpt><trkpt lat="44.90307599641088" lon="9.016350371832775"><ele>272.5</ele><time>2026-04-19T13:22:51Z</time></trkpt><trkpt lat="44.9031504941407" lon="9.016200507097805"><ele>272.25</ele><time>2026-04-19T13:22:52Z</time></trkpt><trkpt lat="44.90322607858321" lon="9.016081633093208"><ele>272.0</ele><time>2026-04-19T13:22:53Z</time></trkpt><trkpt lat="44.90329858970288" lon="9.01597080354475"><ele>272.0</ele><time>2026-04-19T13:22:54Z</time></trkpt><trkpt lat="44.903371776071175" lon="9.01585761126038"><ele>272.0</ele><time>2026-04-19T13:22:55Z</time></trkpt><trkpt lat="44.90344575074926" lon="9.015734251354132"><ele>272.0</ele><time>2026-04-19T13:22:56Z</time></trkpt><trkpt lat="44.90353047294801" lon="9.015599225281825"><ele>272.0</ele><time>2026-04-19T13:22:57Z</time></trkpt><trkpt lat="44.90362582647753" lon="9.015444784478339"><ele>270.25</ele><time>2026-04-19T13:22:58Z</time></trkpt><trkpt lat="44.90372622956739" lon="9.015286800426379"><ele>268.5</ele><time>2026-04-19T13:22:59Z</time></trkpt><trkpt lat="44.903827496507695" lon="9.015120790560166"><ele>266.75</ele><time>2026-04-19T13:23:00Z</time></trkpt><trkpt lat="44.90392135796036" lon="9.01497699540997"><ele>265.0</ele><time>2026-04-19T13:23:01Z</time></trkpt><trkpt lat="44.90400675348594" lon="9.014841004863534"><ele>263.75</ele><time>2026-04-19T13:23:02Z</time></trkpt><trkpt lat="44.90409099164498" lon="9.014708557629579"><ele>262.5</ele><time>2026-04-19T13:23:03Z</time></trkpt><trkpt lat="44.90418201996765" lon="9.014565696538199"><ele>261.25</ele><time>2026-04-19T13:23:04Z</time></trkpt><trkpt lat="44.90425995595026" lon="9.014445068925962"><ele>260.0</ele><time>2026-04-19T13:23:05Z</time></trkpt><trkpt lat="44.90433050500155" lon="9.01433053608519"><ele>260.0</ele><time>2026-04-19T13:23:06Z</time></trkpt><trkpt lat="44.904395575392286" lon="9.014225587223473"><ele>260.0</ele><time>2026-04-19T13:23:07Z</time></trkpt><trkpt lat="44.9044576341185" lon="9.014128165725603"><ele>260.0</ele><time>2026-04-19T13:23:08Z</time></trkpt><trkpt lat="44.90450822855647" lon="9.014054336329568"><ele>260.0</ele><time>2026-04-19T13:23:09Z</time></trkpt><trkpt lat="44.904563188311556" lon="9.013982812082435"><ele>260.0</ele><time>2026-04-19T13:23:10Z</time></trkpt><trkpt lat="44.90460347123257" lon="9.013909067627091"><ele>260.0</ele><time>2026-04-19T13:23:11Z</time></trkpt><trkpt lat="44.90467372630944" lon="9.013780850192838"><ele>260.0</ele><time>2026-04-19T13:23:13Z</time></trkpt><trkpt lat="44.90476788738224" lon="9.013689693893218"><ele>260.0</ele><time>2026-04-19T13:23:14.999Z</time></trkpt><trkpt lat="44.904848178527644" lon="9.013714375761868"><ele>260.0</ele><time>2026-04-19T13:23:16.999Z</time></trkpt><trkpt lat="44.90487396852569" lon="9.013631854148974"><ele>260.0</ele><time>2026-04-19T13:23:18.999Z</time></trkpt><trkpt lat="44.904822228177316" lon="9.013541646164363"><ele>260.0</ele><time>2026-04-19T13:23:19.999Z</time></trkpt><trkpt lat="44.90488372746151" lon="9.013421717542323"><ele>260.0</ele><time>2026-04-19T13:23:23.999Z</time></trkpt><trkpt lat="44.90493372854737" lon="9.013286905368737"><ele>258.75</ele><time>2026-04-19T13:23:24.999Z</time></trkpt><trkpt lat="44.90499875826118" lon="9.013167513467296"><ele>257.5</ele><time>2026-04-19T13:23:25.999Z</time></trkpt><trkpt lat="44.90506821833468" lon="9.013003349704096"><ele>256.25</ele><time>2026-04-19T13:23:26.999Z</time></trkpt><trkpt lat="44.905128395493755" lon="9.012847778437372"><ele>255.0</ele><time>2026-04-19T13:23:27.999Z</time></trkpt><trkpt lat="44.905190161854506" lon="9.01273002612885"><ele>255.0</ele><time>2026-04-19T13:23:28.999Z</time></trkpt><trkpt lat="44.90524293985527" lon="9.012597652695176"><ele>255.0</ele><time>2026-04-19T13:23:29.999Z</time></trkpt><trkpt lat="44.90530377647188" lon="9.012449780600067"><ele>255.0</ele><time>2026-04-19T13:23:30.999Z</time></trkpt><trkpt lat="44.90535728486217" lon="9.012295677559383"><ele>255.0</ele><time>2026-04-19T13:23:31.999Z</time></trkpt><trkpt lat="44.90956350555615" lon="9.006151892465134"><ele>244.25</ele><time>2026-04-19T13:24:22Z</time></trkpt><trkpt lat="44.90965868400867" lon="9.00606822748642"><ele>233.5</ele><time>2026-04-19T13:24:23Z</time></trkpt><trkpt lat="44.909756749788045" lon="9.00598933335721"><ele>222.75</ele><time>2026-04-19T13:24:24Z</time></trkpt><trkpt lat="44.9098863880485" lon="9.0058850390929"><ele>212.0</ele><time>2026-04-19T13:24:25Z</time></trkpt><trkpt lat="44.91000053034339" lon="9.00576109660356"><ele>208.33333333333334</ele><time>2026-04-19T13:24:26Z</time></trkpt><trkpt lat="44.91012148248683" lon="9.005667035539997"><ele>204.66666666666669</ele><time>2026-04-19T13:24:27Z</time></trkpt><trkpt lat="44.91036423106683" lon="9.005479668747586"><ele>201.0</ele><time>2026-04-19T13:24:29Z</time></trkpt><trkpt lat="44.910462672591784" lon="9.005403027616179"><ele>201.0</ele><time>2026-04-19T13:24:30Z</time></trkpt><trkpt lat="44.9105402323762" lon="9.00533429828245"><ele>201.0</ele><time>2026-04-19T13:24:31Z</time></trkpt><trkpt lat="44.91060380996627" lon="9.005258041151588"><ele>201.0</ele><time>2026-04-19T13:24:32Z</time></trkpt><trkpt lat="44.91067829241609" lon="9.005172677655203"><ele>201.0</ele><time>2026-04-19T13:24:33Z</time></trkpt><trkpt lat="44.9107754944268" lon="9.005093121090741"><ele>201.0</ele><time>2026-04-19T13:24:34Z</time></trkpt><trkpt lat="44.910859917783405" lon="9.005024946026447"><ele>198.5</ele><time>2026-04-19T13:24:35Z</time></trkpt><trkpt lat="44.91093958374485" lon="9.004954993176172"><ele>196.0</ele><time>2026-04-19T13:24:36Z</time></trkpt><trkpt lat="44.911008370349585" lon="9.00489149651163"><ele>193.5</ele><time>2026-04-19T13:24:37Z</time></trkpt><trkpt lat="44.91107091158657" lon="9.004831398253776"><ele>191.0</ele><time>2026-04-19T13:24:38Z</time></trkpt><trkpt lat="44.91112999651035" lon="9.004776351915112"><ele>188.5</ele><time>2026-04-19T13:24:39Z</time></trkpt><trkpt lat="44.91119392960557" lon="9.004706574573317"><ele>186.0</ele><time>2026-04-19T13:24:40Z</time></trkpt><trkpt lat="44.91124432836535" lon="9.004610295860903"><ele>186.0</ele><time>2026-04-19T13:24:41Z</time></trkpt><trkpt lat="44.91128802928889" lon="9.004488349921253"><ele>186.0</ele><time>2026-04-19T13:24:42Z</time></trkpt><trkpt lat="44.91132602918988" lon="9.004353277882391"><ele>186.0</ele><time>2026-04-19T13:24:43Z</time></trkpt><trkpt lat="44.91135780796309" lon="9.004223888797878"><ele>186.0</ele><time>2026-04-19T13:24:44Z</time></trkpt><trkpt lat="44.91139695709418" lon="9.004070259836888"><ele>186.0</ele><time>2026-04-19T13:24:45Z</time></trkpt><trkpt lat="44.91144091543897" lon="9.003894746779642"><ele>185.25</ele><time>2026-04-19T13:24:46Z</time></trkpt><trkpt lat="44.9114820005074" lon="9.003713418940693"><ele>184.5</ele><time>2026-04-19T13:24:47Z</time></trkpt><trkpt lat="44.91151270562176" lon="9.003568563527715"><ele>183.75</ele><time>2026-04-19T13:24:48Z</time></trkpt><trkpt lat="44.91156090721812" lon="9.003374239576793"><ele>183.0</ele><time>2026-04-19T13:24:50Z</time></trkpt><trkpt lat="44.91162573918634" lon="9.003229718550136"><ele>182.5</ele><time>2026-04-19T13:24:52Z</time></trkpt><trkpt lat="44.911649159135315" lon="9.003051517109709"><ele>182.0</ele><time>2026-04-19T13:24:54Z</time></trkpt><trkpt lat="44.911638655852755" lon="9.002880181090305"><ele>181.5</ele><time>2026-04-19T13:24:55Z</time></trkpt><trkpt lat="44.91164831284207" lon="9.002680058708103"><ele>181.0</ele><time>2026-04-19T13:24:56Z</time></trkpt><trkpt lat="44.91166435461059" lon="9.002507632092273"><ele>181.25</ele><time>2026-04-19T13:24:57Z</time></trkpt><trkpt lat="44.91166737700029" lon="9.002330555142311"><ele>181.5</ele><time>2026-04-19T13:24:58Z</time></trkpt><trkpt lat="44.91168065161823" lon="9.002153513644343"><ele>181.75</ele><time>2026-04-19T13:24:59Z</time></trkpt><trkpt lat="44.91171985581732" lon="9.001993156549453"><ele>182.0</ele><time>2026-04-19T13:25:00Z</time></trkpt><trkpt lat="44.91178076512149" lon="9.00181427214935"><ele>180.5</ele><time>2026-04-19T13:25:01Z</time></trkpt><trkpt lat="44.91182516887264" lon="9.00162401615871"><ele>179.0</ele><time>2026-04-19T13:25:02Z</time></trkpt><trkpt lat="44.91188411884897" lon="9.00148185652713"><ele>177.5</ele><time>2026-04-19T13:25:03Z</time></trkpt><trkpt lat="44.91197865349855" lon="9.001345240938555"><ele>176.0</ele><time>2026-04-19T13:25:04Z</time></trkpt><trkpt lat="44.91207896316154" lon="9.001178981773954"><ele>176.0</ele><time>2026-04-19T13:25:05Z</time></trkpt><trkpt lat="44.91217550189289" lon="9.00098741356434"><ele>176.0</ele><time>2026-04-19T13:25:06Z</time></trkpt><trkpt lat="44.91228555203596" lon="9.000789786537876"><ele>176.0</ele><time>2026-04-19T13:25:07Z</time></trkpt><trkpt lat="44.912374615945744" lon="9.000631255232298"><ele>175.0</ele><time>2026-04-19T13:25:08Z</time></trkpt><trkpt lat="44.91244589429947" lon="9.000473284410834"><ele>174.0</ele><time>2026-04-19T13:25:09Z</time></trkpt><trkpt lat="44.9125649108828" lon="9.000090609846866"><ele>173.0</ele><time>2026-04-19T13:25:11Z</time></trkpt><trkpt lat="44.91264290667487" lon="8.999982339732309"><ele>173.0</ele><time>2026-04-19T13:25:12Z</time></trkpt><trkpt lat="44.91274986826832" lon="8.999912801062237"><ele>173.0</ele><time>2026-04-19T13:25:13Z</time></trkpt><trkpt lat="44.91284465166735" lon="8.99980134548678"><ele>173.0</ele><time>2026-04-19T13:25:14Z</time></trkpt><trkpt lat="44.91294098158787" lon="8.999652908890464"><ele>173.0</ele><time>2026-04-19T13:25:15Z</time></trkpt><trkpt lat="44.913062618764634" lon="8.9995227132234"><ele>173.0</ele><time>2026-04-19T13:25:16Z</time></trkpt><trkpt lat="44.913177349044396" lon="8.999444994799688"><ele>173.0</ele><time>2026-04-19T13:25:16.999Z</time></trkpt><trkpt lat="44.91325906101095" lon="8.999301901902404"><ele>173.0</ele><time>2026-04-19T13:25:17.999Z</time></trkpt><trkpt lat="44.91333136120115" lon="8.999134089112427"><ele>173.0</ele><time>2026-04-19T13:25:18.999Z</time></trkpt><trkpt lat="44.91343818654894" lon="8.998997068322428"><ele>172.75</ele><time>2026-04-19T13:25:19.999Z</time></trkpt><trkpt lat="44.9135591290314" lon="8.998891594956582"><ele>172.5</ele><time>2026-04-19T13:25:20.999Z</time></trkpt><trkpt lat="44.91365644049986" lon="8.998756681090095"><ele>172.25</ele><time>2026-04-19T13:25:21.999Z</time></trkpt><trkpt lat="44.91373567749061" lon="8.9986232520411"><ele>172.0</ele><time>2026-04-19T13:25:22.999Z</time></trkpt><trkpt lat="44.91377972434538" lon="8.998520418211474"><ele>172.0</ele><time>2026-04-19T13:25:23.999Z</time></trkpt><trkpt lat="44.91380532459495" lon="8.998430938576552"><ele>172.0</ele><time>2026-04-19T13:25:24.999Z</time></trkpt><trkpt lat="44.91382497600276" lon="8.99830112063508"><ele>172.0</ele><time>2026-04-19T13:25:26.999Z</time></trkpt><trkpt lat="44.913885132391144" lon="8.99818489501618"><ele>172.0</ele><time>2026-04-19T13:25:28.999Z</time></trkpt><trkpt lat="44.913967126156685" lon="8.998149796923308"><ele>172.0</ele><time>2026-04-19T13:25:29.999Z</time></trkpt><trkpt lat="44.91411718505275" lon="8.997998517238537"><ele>172.25</ele><time>2026-04-19T13:25:31.999Z</time></trkpt><trkpt lat="44.91422885237464" lon="8.997914479716313"><ele>172.5</ele><time>2026-04-19T13:25:32.999Z</time></trkpt><trkpt lat="44.91433549628479" lon="8.99782667296202"><ele>172.75</ele><time>2026-04-19T13:25:33.999Z</time></trkpt><trkpt lat="44.9144254882455" lon="8.997753922555537"><ele>173.0</ele><time>2026-04-19T13:25:34.999Z</time></trkpt><trkpt lat="44.91452373802261" lon="8.997679200240553"><ele>172.60000000000002</ele><time>2026-04-19T13:25:35.999Z</time></trkpt><trkpt lat="44.91462110314668" lon="8.997589471769173"><ele>172.20000000000002</ele><time>2026-04-19T13:25:36.999Z</time></trkpt><trkpt lat="44.91469582001843" lon="8.997504420429415"><ele>171.8</ele><time>2026-04-19T13:25:37.999Z</time></trkpt><trkpt lat="44.914762327423645" lon="8.997414314808465"><ele>171.4</ele><time>2026-04-19T13:25:38.999Z</time></trkpt><trkpt lat="44.91481540728496" lon="8.997330471931164"><ele>171.0</ele><time>2026-04-19T13:25:39.999Z</time></trkpt><trkpt lat="44.91487084805909" lon="8.997248029120179"><ele>171.0</ele><time>2026-04-19T13:25:40.999Z</time></trkpt><trkpt lat="44.91493382709213" lon="8.997206073262271"><ele>171.0</ele><time>2026-04-19T13:25:41.999Z</time></trkpt><trkpt lat="44.91502166546649" lon="8.997107929758316"><ele>171.0</ele><time>2026-04-19T13:25:43.999Z</time></trkpt><trkpt lat="44.9150825183624" lon="8.997033083506535"><ele>171.0</ele><time>2026-04-19T13:25:45.999Z</time></trkpt><trkpt lat="44.914957101451506" lon="8.996690420817975"><ele>170.25</ele><time>2026-04-19T13:25:46.999Z</time></trkpt><trkpt lat="44.91490783800193" lon="8.996496087396952"><ele>169.5</ele><time>2026-04-19T13:25:47.999Z</time></trkpt><trkpt lat="44.91485654139111" lon="8.996301434506604"><ele>168.75</ele><time>2026-04-19T13:25:48.999Z</time></trkpt><trkpt lat="44.914821032941596" lon="8.996111114238674"><ele>168.0</ele><time>2026-04-19T13:25:49.999Z</time></trkpt><trkpt lat="44.91478864261004" lon="8.995925658066938"><ele>168.0</ele><time>2026-04-19T13:25:50.999Z</time></trkpt></trkseg></trk></gpx>